<?xml version="1.0" encoding="UTF-8" standalone="no" ?>
<gpx xmlns="http://www.topografix.com/GPX/1/1" xmlns:xsi="http://www.w3.org/2001/XMLSchema-instance" xsi:schemaLocation="http://www.topografix.com/GPX/1/1 http://www.topografix.com/GPX/1/1/gpx.xsd" version="1.1" creator="VisuGPX - https://www.visugpx.com">
  <metadata>
    <name>Gabarnac, 20 janvier 2015</name>
    <desc><![CDATA[Rando au départ de Gabarnac.
-2° au départ.
Brouillard.
]]></desc>
  </metadata>
  <trk>
    <name><![CDATA[2015-01-20 12:39:35]]></name>
    <trkseg>
      <trkpt lat="44.61296" lon="-0.27886">
        <ele>88.58</ele>
        <time>2015-01-20T07:58:09Z</time>
      </trkpt>
      <trkpt lat="44.61295" lon="-0.27886">
        <ele>88.58</ele>
        <time>2015-01-20T07:58:10Z</time>
      </trkpt>
      <trkpt lat="44.61293" lon="-0.27886">
        <ele>88.1</ele>
        <time>2015-01-20T07:58:41Z</time>
      </trkpt>
      <trkpt lat="44.61292" lon="-0.27885">
        <ele>88.1</ele>
        <time>2015-01-20T07:58:42Z</time>
      </trkpt>
      <trkpt lat="44.61289" lon="-0.27881">
        <ele>88.1</ele>
        <time>2015-01-20T07:58:56Z</time>
      </trkpt>
      <trkpt lat="44.61287" lon="-0.27879">
        <ele>87.62</ele>
        <time>2015-01-20T07:59:17Z</time>
      </trkpt>
      <trkpt lat="44.61285" lon="-0.27878">
        <ele>87.62</ele>
        <time>2015-01-20T07:59:46Z</time>
      </trkpt>
      <trkpt lat="44.61286" lon="-0.27883">
        <ele>87.62</ele>
        <time>2015-01-20T08:00:20Z</time>
      </trkpt>
      <trkpt lat="44.61286" lon="-0.27883">
        <ele>87.62</ele>
        <time>2015-01-20T08:00:50Z</time>
      </trkpt>
      <trkpt lat="44.61289" lon="-0.27885">
        <ele>87.62</ele>
        <time>2015-01-20T08:01:06Z</time>
      </trkpt>
      <trkpt lat="44.6129" lon="-0.27884">
        <ele>87.62</ele>
        <time>2015-01-20T08:01:27Z</time>
      </trkpt>
      <trkpt lat="44.6129" lon="-0.27882">
        <ele>87.62</ele>
        <time>2015-01-20T08:01:50Z</time>
      </trkpt>
      <trkpt lat="44.61288" lon="-0.27881">
        <ele>87.62</ele>
        <time>2015-01-20T08:02:05Z</time>
      </trkpt>
      <trkpt lat="44.61287" lon="-0.27883">
        <ele>87.62</ele>
        <time>2015-01-20T08:02:28Z</time>
      </trkpt>
      <trkpt lat="44.61286" lon="-0.27884">
        <ele>87.62</ele>
        <time>2015-01-20T08:02:48Z</time>
      </trkpt>
      <trkpt lat="44.61284" lon="-0.2788">
        <ele>87.62</ele>
        <time>2015-01-20T08:03:07Z</time>
      </trkpt>
      <trkpt lat="44.61277" lon="-0.27876">
        <ele>87.62</ele>
        <time>2015-01-20T08:03:13Z</time>
      </trkpt>
      <trkpt lat="44.61268" lon="-0.27873">
        <ele>87.62</ele>
        <time>2015-01-20T08:03:28Z</time>
      </trkpt>
      <trkpt lat="44.61269" lon="-0.27873">
        <ele>88.58</ele>
        <time>2015-01-20T08:03:30Z</time>
      </trkpt>
      <trkpt lat="44.61271" lon="-0.27876">
        <ele>88.58</ele>
        <time>2015-01-20T08:03:48Z</time>
      </trkpt>
      <trkpt lat="44.61256" lon="-0.27872">
        <ele>85.21</ele>
        <time>2015-01-20T08:03:59Z</time>
      </trkpt>
      <trkpt lat="44.61258" lon="-0.27864">
        <ele>85.21</ele>
        <time>2015-01-20T08:04:08Z</time>
      </trkpt>
      <trkpt lat="44.61257" lon="-0.27859">
        <ele>85.21</ele>
        <time>2015-01-20T08:04:11Z</time>
      </trkpt>
      <trkpt lat="44.61266" lon="-0.27863">
        <ele>85.21</ele>
        <time>2015-01-20T08:04:25Z</time>
      </trkpt>
      <trkpt lat="44.6127" lon="-0.27866">
        <ele>85.21</ele>
        <time>2015-01-20T08:04:28Z</time>
      </trkpt>
      <trkpt lat="44.61277" lon="-0.27878">
        <ele>85.21</ele>
        <time>2015-01-20T08:04:48Z</time>
      </trkpt>
      <trkpt lat="44.61273" lon="-0.27878">
        <ele>88.58</ele>
        <time>2015-01-20T08:04:55Z</time>
      </trkpt>
      <trkpt lat="44.61273" lon="-0.27878">
        <ele>88.58</ele>
        <time>2015-01-20T08:04:56Z</time>
      </trkpt>
      <trkpt lat="44.61284" lon="-0.27879">
        <ele>88.1</ele>
        <time>2015-01-20T08:05:11Z</time>
      </trkpt>
      <trkpt lat="44.61284" lon="-0.27878">
        <ele>88.1</ele>
        <time>2015-01-20T08:05:27Z</time>
      </trkpt>
      <trkpt lat="44.61278" lon="-0.27875">
        <ele>88.1</ele>
        <time>2015-01-20T08:05:35Z</time>
      </trkpt>
      <trkpt lat="44.61258" lon="-0.27864">
        <ele>88.1</ele>
        <time>2015-01-20T08:05:53Z</time>
      </trkpt>
      <trkpt lat="44.61243" lon="-0.27853">
        <ele>88.1</ele>
        <time>2015-01-20T08:06:08Z</time>
      </trkpt>
      <trkpt lat="44.6123" lon="-0.27843">
        <ele>88.1</ele>
        <time>2015-01-20T08:06:21Z</time>
      </trkpt>
      <trkpt lat="44.61214" lon="-0.27831">
        <ele>88.1</ele>
        <time>2015-01-20T08:06:36Z</time>
      </trkpt>
      <trkpt lat="44.61198" lon="-0.27817">
        <ele>88.1</ele>
        <time>2015-01-20T08:06:52Z</time>
      </trkpt>
      <trkpt lat="44.61189" lon="-0.27802">
        <ele>89.06</ele>
        <time>2015-01-20T08:07:03Z</time>
      </trkpt>
      <trkpt lat="44.61182" lon="-0.27794">
        <ele>89.06</ele>
        <time>2015-01-20T08:07:11Z</time>
      </trkpt>
      <trkpt lat="44.61176" lon="-0.27786">
        <ele>89.54</ele>
        <time>2015-01-20T08:07:18Z</time>
      </trkpt>
      <trkpt lat="44.61161" lon="-0.27768">
        <ele>90.02</ele>
        <time>2015-01-20T08:07:36Z</time>
      </trkpt>
      <trkpt lat="44.61149" lon="-0.27754">
        <ele>90.5</ele>
        <time>2015-01-20T08:07:51Z</time>
      </trkpt>
      <trkpt lat="44.61134" lon="-0.27747">
        <ele>90.98</ele>
        <time>2015-01-20T08:08:05Z</time>
      </trkpt>
      <trkpt lat="44.61131" lon="-0.27749">
        <ele>90.98</ele>
        <time>2015-01-20T08:08:08Z</time>
      </trkpt>
      <trkpt lat="44.61115" lon="-0.27767">
        <ele>90.98</ele>
        <time>2015-01-20T08:08:24Z</time>
      </trkpt>
      <trkpt lat="44.61102" lon="-0.27786">
        <ele>90.98</ele>
        <time>2015-01-20T08:08:39Z</time>
      </trkpt>
      <trkpt lat="44.61095" lon="-0.27806">
        <ele>90.98</ele>
        <time>2015-01-20T08:08:53Z</time>
      </trkpt>
      <trkpt lat="44.61086" lon="-0.27825">
        <ele>90.98</ele>
        <time>2015-01-20T08:09:06Z</time>
      </trkpt>
      <trkpt lat="44.61077" lon="-0.27845">
        <ele>90.98</ele>
        <time>2015-01-20T08:09:20Z</time>
      </trkpt>
      <trkpt lat="44.61067" lon="-0.27864">
        <ele>89.06</ele>
        <time>2015-01-20T08:09:34Z</time>
      </trkpt>
      <trkpt lat="44.61057" lon="-0.27882">
        <ele>89.06</ele>
        <time>2015-01-20T08:09:48Z</time>
      </trkpt>
      <trkpt lat="44.61045" lon="-0.27905">
        <ele>86.66</ele>
        <time>2015-01-20T08:10:05Z</time>
      </trkpt>
      <trkpt lat="44.61037" lon="-0.27922">
        <ele>83.77</ele>
        <time>2015-01-20T08:10:20Z</time>
      </trkpt>
      <trkpt lat="44.61034" lon="-0.27926">
        <ele>83.29</ele>
        <time>2015-01-20T08:10:24Z</time>
      </trkpt>
      <trkpt lat="44.61031" lon="-0.27927">
        <ele>82.81</ele>
        <time>2015-01-20T08:10:28Z</time>
      </trkpt>
      <trkpt lat="44.61015" lon="-0.27922">
        <ele>79.45</ele>
        <time>2015-01-20T08:10:44Z</time>
      </trkpt>
      <trkpt lat="44.60999" lon="-0.27918">
        <ele>76.08</ele>
        <time>2015-01-20T08:10:59Z</time>
      </trkpt>
      <trkpt lat="44.60987" lon="-0.27912">
        <ele>74.64</ele>
        <time>2015-01-20T08:11:14Z</time>
      </trkpt>
      <trkpt lat="44.60982" lon="-0.27905">
        <ele>73.68</ele>
        <time>2015-01-20T08:11:22Z</time>
      </trkpt>
      <trkpt lat="44.60969" lon="-0.27888">
        <ele>72.24</ele>
        <time>2015-01-20T08:11:38Z</time>
      </trkpt>
      <trkpt lat="44.60957" lon="-0.27875">
        <ele>71.27</ele>
        <time>2015-01-20T08:11:54Z</time>
      </trkpt>
      <trkpt lat="44.60955" lon="-0.27877">
        <ele>70.79</ele>
        <time>2015-01-20T08:12:09Z</time>
      </trkpt>
      <trkpt lat="44.60955" lon="-0.27872">
        <ele>70.79</ele>
        <time>2015-01-20T08:12:25Z</time>
      </trkpt>
      <trkpt lat="44.60954" lon="-0.27871">
        <ele>70.79</ele>
        <time>2015-01-20T08:12:29Z</time>
      </trkpt>
      <trkpt lat="44.6095" lon="-0.2787">
        <ele>70.79</ele>
        <time>2015-01-20T08:12:41Z</time>
      </trkpt>
      <trkpt lat="44.60949" lon="-0.27871">
        <ele>70.79</ele>
        <time>2015-01-20T08:12:52Z</time>
      </trkpt>
      <trkpt lat="44.60947" lon="-0.27876">
        <ele>70.79</ele>
        <time>2015-01-20T08:12:56Z</time>
      </trkpt>
      <trkpt lat="44.60933" lon="-0.2788">
        <ele>70.31</ele>
        <time>2015-01-20T08:13:08Z</time>
      </trkpt>
      <trkpt lat="44.60926" lon="-0.27879">
        <ele>71.76</ele>
        <time>2015-01-20T08:13:14Z</time>
      </trkpt>
      <trkpt lat="44.60926" lon="-0.27879">
        <ele>71.76</ele>
        <time>2015-01-20T08:13:15Z</time>
      </trkpt>
      <trkpt lat="44.60921" lon="-0.27883">
        <ele>72.24</ele>
        <time>2015-01-20T08:13:30Z</time>
      </trkpt>
      <trkpt lat="44.60918" lon="-0.27882">
        <ele>71.27</ele>
        <time>2015-01-20T08:13:33Z</time>
      </trkpt>
      <trkpt lat="44.60914" lon="-0.2788">
        <ele>71.27</ele>
        <time>2015-01-20T08:13:36Z</time>
      </trkpt>
      <trkpt lat="44.6091" lon="-0.2788">
        <ele>71.27</ele>
        <time>2015-01-20T08:13:40Z</time>
      </trkpt>
      <trkpt lat="44.60908" lon="-0.27882">
        <ele>70.79</ele>
        <time>2015-01-20T08:13:42Z</time>
      </trkpt>
      <trkpt lat="44.609" lon="-0.27898">
        <ele>72.24</ele>
        <time>2015-01-20T08:13:56Z</time>
      </trkpt>
      <trkpt lat="44.60887" lon="-0.27907">
        <ele>73.68</ele>
        <time>2015-01-20T08:14:13Z</time>
      </trkpt>
      <trkpt lat="44.60872" lon="-0.27902">
        <ele>74.64</ele>
        <time>2015-01-20T08:14:27Z</time>
      </trkpt>
      <trkpt lat="44.60854" lon="-0.27906">
        <ele>76.08</ele>
        <time>2015-01-20T08:14:46Z</time>
      </trkpt>
      <trkpt lat="44.60837" lon="-0.2791">
        <ele>77.04</ele>
        <time>2015-01-20T08:15:02Z</time>
      </trkpt>
      <trkpt lat="44.60825" lon="-0.27908">
        <ele>78</ele>
        <time>2015-01-20T08:15:15Z</time>
      </trkpt>
      <trkpt lat="44.60812" lon="-0.27903">
        <ele>78.48</ele>
        <time>2015-01-20T08:15:29Z</time>
      </trkpt>
      <trkpt lat="44.60804" lon="-0.27899">
        <ele>79.45</ele>
        <time>2015-01-20T08:15:43Z</time>
      </trkpt>
      <trkpt lat="44.60791" lon="-0.27895">
        <ele>80.41</ele>
        <time>2015-01-20T08:15:57Z</time>
      </trkpt>
      <trkpt lat="44.60778" lon="-0.2789">
        <ele>81.85</ele>
        <time>2015-01-20T08:16:12Z</time>
      </trkpt>
      <trkpt lat="44.60766" lon="-0.27883">
        <ele>82.81</ele>
        <time>2015-01-20T08:16:27Z</time>
      </trkpt>
      <trkpt lat="44.60755" lon="-0.27878">
        <ele>83.29</ele>
        <time>2015-01-20T08:16:40Z</time>
      </trkpt>
      <trkpt lat="44.60751" lon="-0.27875">
        <ele>83.77</ele>
        <time>2015-01-20T08:16:45Z</time>
      </trkpt>
      <trkpt lat="44.60748" lon="-0.27874">
        <ele>83.77</ele>
        <time>2015-01-20T08:16:48Z</time>
      </trkpt>
      <trkpt lat="44.60735" lon="-0.27868">
        <ele>85.21</ele>
        <time>2015-01-20T08:17:03Z</time>
      </trkpt>
      <trkpt lat="44.60724" lon="-0.27864">
        <ele>86.18</ele>
        <time>2015-01-20T08:17:17Z</time>
      </trkpt>
      <trkpt lat="44.60713" lon="-0.2786">
        <ele>87.62</ele>
        <time>2015-01-20T08:17:30Z</time>
      </trkpt>
      <trkpt lat="44.60701" lon="-0.27851">
        <ele>89.54</ele>
        <time>2015-01-20T08:17:47Z</time>
      </trkpt>
      <trkpt lat="44.60689" lon="-0.2784">
        <ele>90.98</ele>
        <time>2015-01-20T08:18:02Z</time>
      </trkpt>
      <trkpt lat="44.60679" lon="-0.27835">
        <ele>91.46</ele>
        <time>2015-01-20T08:18:13Z</time>
      </trkpt>
      <trkpt lat="44.60666" lon="-0.27842">
        <ele>92.9</ele>
        <time>2015-01-20T08:18:29Z</time>
      </trkpt>
      <trkpt lat="44.60658" lon="-0.27855">
        <ele>93.87</ele>
        <time>2015-01-20T08:18:44Z</time>
      </trkpt>
      <trkpt lat="44.60655" lon="-0.2786">
        <ele>94.35</ele>
        <time>2015-01-20T08:18:49Z</time>
      </trkpt>
      <trkpt lat="44.60645" lon="-0.27877">
        <ele>94.35</ele>
        <time>2015-01-20T08:19:04Z</time>
      </trkpt>
      <trkpt lat="44.60643" lon="-0.27881">
        <ele>94.35</ele>
        <time>2015-01-20T08:19:08Z</time>
      </trkpt>
      <trkpt lat="44.60634" lon="-0.27893">
        <ele>95.79</ele>
        <time>2015-01-20T08:19:22Z</time>
      </trkpt>
      <trkpt lat="44.60625" lon="-0.27904">
        <ele>96.75</ele>
        <time>2015-01-20T08:19:35Z</time>
      </trkpt>
      <trkpt lat="44.60612" lon="-0.27923">
        <ele>98.67</ele>
        <time>2015-01-20T08:19:54Z</time>
      </trkpt>
      <trkpt lat="44.60603" lon="-0.27938">
        <ele>100.6</ele>
        <time>2015-01-20T08:20:08Z</time>
      </trkpt>
      <trkpt lat="44.60596" lon="-0.27951">
        <ele>102.52</ele>
        <time>2015-01-20T08:20:23Z</time>
      </trkpt>
      <trkpt lat="44.6059" lon="-0.27965">
        <ele>103.96</ele>
        <time>2015-01-20T08:20:37Z</time>
      </trkpt>
      <trkpt lat="44.60583" lon="-0.27978">
        <ele>105.88</ele>
        <time>2015-01-20T08:20:50Z</time>
      </trkpt>
      <trkpt lat="44.60576" lon="-0.27992">
        <ele>107.32</ele>
        <time>2015-01-20T08:21:05Z</time>
      </trkpt>
      <trkpt lat="44.60568" lon="-0.28005">
        <ele>108.77</ele>
        <time>2015-01-20T08:21:20Z</time>
      </trkpt>
      <trkpt lat="44.60559" lon="-0.28015">
        <ele>110.69</ele>
        <time>2015-01-20T08:21:35Z</time>
      </trkpt>
      <trkpt lat="44.60546" lon="-0.28004">
        <ele>112.13</ele>
        <time>2015-01-20T08:21:52Z</time>
      </trkpt>
      <trkpt lat="44.60537" lon="-0.27992">
        <ele>113.09</ele>
        <time>2015-01-20T08:22:05Z</time>
      </trkpt>
      <trkpt lat="44.60526" lon="-0.27979">
        <ele>113.57</ele>
        <time>2015-01-20T08:22:18Z</time>
      </trkpt>
      <trkpt lat="44.60515" lon="-0.27968">
        <ele>113.57</ele>
        <time>2015-01-20T08:22:32Z</time>
      </trkpt>
      <trkpt lat="44.60505" lon="-0.2797">
        <ele>114.05</ele>
        <time>2015-01-20T08:22:43Z</time>
      </trkpt>
      <trkpt lat="44.60495" lon="-0.27987">
        <ele>115.5</ele>
        <time>2015-01-20T08:22:59Z</time>
      </trkpt>
      <trkpt lat="44.60486" lon="-0.28002">
        <ele>115.98</ele>
        <time>2015-01-20T08:23:13Z</time>
      </trkpt>
      <trkpt lat="44.60478" lon="-0.28016">
        <ele>116.94</ele>
        <time>2015-01-20T08:23:26Z</time>
      </trkpt>
      <trkpt lat="44.60477" lon="-0.28018">
        <ele>116.94</ele>
        <time>2015-01-20T08:23:28Z</time>
      </trkpt>
      <trkpt lat="44.6048" lon="-0.28031">
        <ele>116.94</ele>
        <time>2015-01-20T08:23:42Z</time>
      </trkpt>
      <trkpt lat="44.60486" lon="-0.28043">
        <ele>116.94</ele>
        <time>2015-01-20T08:23:55Z</time>
      </trkpt>
      <trkpt lat="44.60496" lon="-0.28062">
        <ele>116.94</ele>
        <time>2015-01-20T08:24:11Z</time>
      </trkpt>
      <trkpt lat="44.60505" lon="-0.28077">
        <ele>116.94</ele>
        <time>2015-01-20T08:24:24Z</time>
      </trkpt>
      <trkpt lat="44.60516" lon="-0.28095">
        <ele>116.94</ele>
        <time>2015-01-20T08:24:39Z</time>
      </trkpt>
      <trkpt lat="44.60528" lon="-0.28115">
        <ele>115.5</ele>
        <time>2015-01-20T08:24:55Z</time>
      </trkpt>
      <trkpt lat="44.60539" lon="-0.28134">
        <ele>115.01</ele>
        <time>2015-01-20T08:25:10Z</time>
      </trkpt>
      <trkpt lat="44.60551" lon="-0.28151">
        <ele>114.53</ele>
        <time>2015-01-20T08:25:24Z</time>
      </trkpt>
      <trkpt lat="44.60559" lon="-0.28164">
        <ele>114.53</ele>
        <time>2015-01-20T08:25:38Z</time>
      </trkpt>
      <trkpt lat="44.60557" lon="-0.28166">
        <ele>114.53</ele>
        <time>2015-01-20T08:25:58Z</time>
      </trkpt>
      <trkpt lat="44.60557" lon="-0.28167">
        <ele>114.53</ele>
        <time>2015-01-20T08:25:59Z</time>
      </trkpt>
      <trkpt lat="44.60545" lon="-0.2818">
        <ele>114.53</ele>
        <time>2015-01-20T08:26:13Z</time>
      </trkpt>
      <trkpt lat="44.6053" lon="-0.28195">
        <ele>113.57</ele>
        <time>2015-01-20T08:26:30Z</time>
      </trkpt>
      <trkpt lat="44.60517" lon="-0.28211">
        <ele>112.61</ele>
        <time>2015-01-20T08:26:45Z</time>
      </trkpt>
      <trkpt lat="44.60504" lon="-0.28227">
        <ele>111.65</ele>
        <time>2015-01-20T08:27:01Z</time>
      </trkpt>
      <trkpt lat="44.60505" lon="-0.2823">
        <ele>112.13</ele>
        <time>2015-01-20T08:27:13Z</time>
      </trkpt>
      <trkpt lat="44.60495" lon="-0.2824">
        <ele>111.65</ele>
        <time>2015-01-20T08:27:35Z</time>
      </trkpt>
      <trkpt lat="44.6048" lon="-0.28258">
        <ele>111.17</ele>
        <time>2015-01-20T08:27:50Z</time>
      </trkpt>
      <trkpt lat="44.60464" lon="-0.28276">
        <ele>111.17</ele>
        <time>2015-01-20T08:28:06Z</time>
      </trkpt>
      <trkpt lat="44.60449" lon="-0.28294">
        <ele>111.17</ele>
        <time>2015-01-20T08:28:21Z</time>
      </trkpt>
      <trkpt lat="44.60445" lon="-0.28298">
        <ele>111.17</ele>
        <time>2015-01-20T08:28:25Z</time>
      </trkpt>
      <trkpt lat="44.60443" lon="-0.28302">
        <ele>111.17</ele>
        <time>2015-01-20T08:28:28Z</time>
      </trkpt>
      <trkpt lat="44.60433" lon="-0.28315">
        <ele>111.17</ele>
        <time>2015-01-20T08:28:40Z</time>
      </trkpt>
      <trkpt lat="44.60415" lon="-0.28332">
        <ele>111.17</ele>
        <time>2015-01-20T08:28:56Z</time>
      </trkpt>
      <trkpt lat="44.60402" lon="-0.28347">
        <ele>111.17</ele>
        <time>2015-01-20T08:29:10Z</time>
      </trkpt>
      <trkpt lat="44.60399" lon="-0.2835">
        <ele>111.17</ele>
        <time>2015-01-20T08:29:27Z</time>
      </trkpt>
      <trkpt lat="44.60389" lon="-0.28363">
        <ele>112.13</ele>
        <time>2015-01-20T08:29:41Z</time>
      </trkpt>
      <trkpt lat="44.60374" lon="-0.28382">
        <ele>111.65</ele>
        <time>2015-01-20T08:29:57Z</time>
      </trkpt>
      <trkpt lat="44.60361" lon="-0.28398">
        <ele>112.13</ele>
        <time>2015-01-20T08:30:11Z</time>
      </trkpt>
      <trkpt lat="44.60346" lon="-0.28414">
        <ele>112.13</ele>
        <time>2015-01-20T08:30:26Z</time>
      </trkpt>
      <trkpt lat="44.60343" lon="-0.28418">
        <ele>111.17</ele>
        <time>2015-01-20T08:30:29Z</time>
      </trkpt>
      <trkpt lat="44.6033" lon="-0.28433">
        <ele>111.17</ele>
        <time>2015-01-20T08:30:42Z</time>
      </trkpt>
      <trkpt lat="44.60317" lon="-0.28449">
        <ele>111.17</ele>
        <time>2015-01-20T08:30:55Z</time>
      </trkpt>
      <trkpt lat="44.60316" lon="-0.2845">
        <ele>111.17</ele>
        <time>2015-01-20T08:30:56Z</time>
      </trkpt>
      <trkpt lat="44.60296" lon="-0.28465">
        <ele>110.21</ele>
        <time>2015-01-20T08:31:13Z</time>
      </trkpt>
      <trkpt lat="44.60288" lon="-0.2847">
        <ele>110.69</ele>
        <time>2015-01-20T08:31:27Z</time>
      </trkpt>
      <trkpt lat="44.60273" lon="-0.28496">
        <ele>109.73</ele>
        <time>2015-01-20T08:31:45Z</time>
      </trkpt>
      <trkpt lat="44.60258" lon="-0.28513">
        <ele>109.25</ele>
        <time>2015-01-20T08:32:01Z</time>
      </trkpt>
      <trkpt lat="44.60246" lon="-0.28528">
        <ele>108.77</ele>
        <time>2015-01-20T08:32:17Z</time>
      </trkpt>
      <trkpt lat="44.6023" lon="-0.28546">
        <ele>107.81</ele>
        <time>2015-01-20T08:32:32Z</time>
      </trkpt>
      <trkpt lat="44.60214" lon="-0.28566">
        <ele>106.84</ele>
        <time>2015-01-20T08:32:48Z</time>
      </trkpt>
      <trkpt lat="44.60203" lon="-0.28579">
        <ele>106.36</ele>
        <time>2015-01-20T08:33:03Z</time>
      </trkpt>
      <trkpt lat="44.60202" lon="-0.28579">
        <ele>106.36</ele>
        <time>2015-01-20T08:33:12Z</time>
      </trkpt>
      <trkpt lat="44.60196" lon="-0.28582">
        <ele>105.88</ele>
        <time>2015-01-20T08:33:18Z</time>
      </trkpt>
      <trkpt lat="44.60175" lon="-0.2857">
        <ele>103.48</ele>
        <time>2015-01-20T08:33:36Z</time>
      </trkpt>
      <trkpt lat="44.60156" lon="-0.28557">
        <ele>100.11</ele>
        <time>2015-01-20T08:33:52Z</time>
      </trkpt>
      <trkpt lat="44.6014" lon="-0.28545">
        <ele>97.71</ele>
        <time>2015-01-20T08:34:06Z</time>
      </trkpt>
      <trkpt lat="44.60125" lon="-0.28535">
        <ele>95.79</ele>
        <time>2015-01-20T08:34:21Z</time>
      </trkpt>
      <trkpt lat="44.60111" lon="-0.28525">
        <ele>93.39</ele>
        <time>2015-01-20T08:34:37Z</time>
      </trkpt>
      <trkpt lat="44.60106" lon="-0.28521">
        <ele>92.42</ele>
        <time>2015-01-20T08:34:43Z</time>
      </trkpt>
      <trkpt lat="44.60091" lon="-0.28511">
        <ele>90.5</ele>
        <time>2015-01-20T08:34:59Z</time>
      </trkpt>
      <trkpt lat="44.60081" lon="-0.28503">
        <ele>88.58</ele>
        <time>2015-01-20T08:35:12Z</time>
      </trkpt>
      <trkpt lat="44.60066" lon="-0.28493">
        <ele>87.14</ele>
        <time>2015-01-20T08:35:27Z</time>
      </trkpt>
      <trkpt lat="44.60049" lon="-0.28482">
        <ele>84.73</ele>
        <time>2015-01-20T08:35:44Z</time>
      </trkpt>
      <trkpt lat="44.60032" lon="-0.28469">
        <ele>83.29</ele>
        <time>2015-01-20T08:36:00Z</time>
      </trkpt>
      <trkpt lat="44.60029" lon="-0.28445">
        <ele>82.81</ele>
        <time>2015-01-20T08:36:14Z</time>
      </trkpt>
      <trkpt lat="44.60031" lon="-0.28423">
        <ele>82.81</ele>
        <time>2015-01-20T08:36:28Z</time>
      </trkpt>
      <trkpt lat="44.60032" lon="-0.28413">
        <ele>84.25</ele>
        <time>2015-01-20T08:36:35Z</time>
      </trkpt>
      <trkpt lat="44.6002" lon="-0.28399">
        <ele>82.33</ele>
        <time>2015-01-20T08:36:49Z</time>
      </trkpt>
      <trkpt lat="44.60003" lon="-0.28384">
        <ele>80.89</ele>
        <time>2015-01-20T08:37:06Z</time>
      </trkpt>
      <trkpt lat="44.5999" lon="-0.28368">
        <ele>79.45</ele>
        <time>2015-01-20T08:37:21Z</time>
      </trkpt>
      <trkpt lat="44.59989" lon="-0.2836">
        <ele>78.97</ele>
        <time>2015-01-20T08:37:27Z</time>
      </trkpt>
      <trkpt lat="44.59992" lon="-0.28347">
        <ele>78.48</ele>
        <time>2015-01-20T08:37:42Z</time>
      </trkpt>
      <trkpt lat="44.59986" lon="-0.28337">
        <ele>75.6</ele>
        <time>2015-01-20T08:37:54Z</time>
      </trkpt>
      <trkpt lat="44.5998" lon="-0.28316">
        <ele>71.76</ele>
        <time>2015-01-20T08:38:09Z</time>
      </trkpt>
      <trkpt lat="44.59973" lon="-0.28299">
        <ele>69.35</ele>
        <time>2015-01-20T08:38:22Z</time>
      </trkpt>
      <trkpt lat="44.59964" lon="-0.28279">
        <ele>66.47</ele>
        <time>2015-01-20T08:38:39Z</time>
      </trkpt>
      <trkpt lat="44.59963" lon="-0.28278">
        <ele>66.47</ele>
        <time>2015-01-20T08:38:40Z</time>
      </trkpt>
      <trkpt lat="44.59947" lon="-0.28287">
        <ele>65.03</ele>
        <time>2015-01-20T08:38:55Z</time>
      </trkpt>
      <trkpt lat="44.59933" lon="-0.28298">
        <ele>63.1</ele>
        <time>2015-01-20T08:39:09Z</time>
      </trkpt>
      <trkpt lat="44.59917" lon="-0.28313">
        <ele>61.18</ele>
        <time>2015-01-20T08:39:24Z</time>
      </trkpt>
      <trkpt lat="44.59904" lon="-0.2832">
        <ele>59.74</ele>
        <time>2015-01-20T08:39:38Z</time>
      </trkpt>
      <trkpt lat="44.59888" lon="-0.28335">
        <ele>57.34</ele>
        <time>2015-01-20T08:39:54Z</time>
      </trkpt>
      <trkpt lat="44.59874" lon="-0.28354">
        <ele>55.41</ele>
        <time>2015-01-20T08:40:09Z</time>
      </trkpt>
      <trkpt lat="44.59863" lon="-0.28374">
        <ele>53.01</ele>
        <time>2015-01-20T08:40:24Z</time>
      </trkpt>
      <trkpt lat="44.5985" lon="-0.28391">
        <ele>51.09</ele>
        <time>2015-01-20T08:40:38Z</time>
      </trkpt>
      <trkpt lat="44.59834" lon="-0.28409">
        <ele>49.16</ele>
        <time>2015-01-20T08:40:53Z</time>
      </trkpt>
      <trkpt lat="44.59814" lon="-0.28422">
        <ele>47.24</ele>
        <time>2015-01-20T08:41:09Z</time>
      </trkpt>
      <trkpt lat="44.59798" lon="-0.28425">
        <ele>44.84</ele>
        <time>2015-01-20T08:41:24Z</time>
      </trkpt>
      <trkpt lat="44.59782" lon="-0.28425">
        <ele>42.92</ele>
        <time>2015-01-20T08:41:39Z</time>
      </trkpt>
      <trkpt lat="44.59779" lon="-0.28424">
        <ele>42.44</ele>
        <time>2015-01-20T08:41:42Z</time>
      </trkpt>
      <trkpt lat="44.59775" lon="-0.28424">
        <ele>41.95</ele>
        <time>2015-01-20T08:41:45Z</time>
      </trkpt>
      <trkpt lat="44.59758" lon="-0.28424">
        <ele>40.51</ele>
        <time>2015-01-20T08:41:59Z</time>
      </trkpt>
      <trkpt lat="44.59741" lon="-0.28426">
        <ele>38.11</ele>
        <time>2015-01-20T08:42:14Z</time>
      </trkpt>
      <trkpt lat="44.59725" lon="-0.28431">
        <ele>36.67</ele>
        <time>2015-01-20T08:42:28Z</time>
      </trkpt>
      <trkpt lat="44.5971" lon="-0.28442">
        <ele>34.74</ele>
        <time>2015-01-20T08:42:42Z</time>
      </trkpt>
      <trkpt lat="44.59703" lon="-0.28454">
        <ele>33.3</ele>
        <time>2015-01-20T08:42:52Z</time>
      </trkpt>
      <trkpt lat="44.5969" lon="-0.28478">
        <ele>30.9</ele>
        <time>2015-01-20T08:43:08Z</time>
      </trkpt>
      <trkpt lat="44.5968" lon="-0.28501">
        <ele>28.98</ele>
        <time>2015-01-20T08:43:24Z</time>
      </trkpt>
      <trkpt lat="44.59676" lon="-0.28511">
        <ele>28.5</ele>
        <time>2015-01-20T08:43:30Z</time>
      </trkpt>
      <trkpt lat="44.59671" lon="-0.28522">
        <ele>27.53</ele>
        <time>2015-01-20T08:43:37Z</time>
      </trkpt>
      <trkpt lat="44.59661" lon="-0.28547">
        <ele>25.13</ele>
        <time>2015-01-20T08:43:54Z</time>
      </trkpt>
      <trkpt lat="44.59659" lon="-0.28555">
        <ele>24.17</ele>
        <time>2015-01-20T08:44:07Z</time>
      </trkpt>
      <trkpt lat="44.59658" lon="-0.28556">
        <ele>24.65</ele>
        <time>2015-01-20T08:44:27Z</time>
      </trkpt>
      <trkpt lat="44.59657" lon="-0.2856">
        <ele>24.17</ele>
        <time>2015-01-20T08:44:41Z</time>
      </trkpt>
      <trkpt lat="44.5965" lon="-0.28545">
        <ele>25.61</ele>
        <time>2015-01-20T08:44:53Z</time>
      </trkpt>
      <trkpt lat="44.59646" lon="-0.28533">
        <ele>28.5</ele>
        <time>2015-01-20T08:45:04Z</time>
      </trkpt>
      <trkpt lat="44.59646" lon="-0.28523">
        <ele>29.46</ele>
        <time>2015-01-20T08:45:11Z</time>
      </trkpt>
      <trkpt lat="44.59647" lon="-0.28504">
        <ele>29.94</ele>
        <time>2015-01-20T08:45:24Z</time>
      </trkpt>
      <trkpt lat="44.59647" lon="-0.28502">
        <ele>31.86</ele>
        <time>2015-01-20T08:45:26Z</time>
      </trkpt>
      <trkpt lat="44.59645" lon="-0.28483">
        <ele>32.34</ele>
        <time>2015-01-20T08:45:39Z</time>
      </trkpt>
      <trkpt lat="44.59645" lon="-0.28478">
        <ele>34.26</ele>
        <time>2015-01-20T08:45:43Z</time>
      </trkpt>
      <trkpt lat="44.59645" lon="-0.28474">
        <ele>34.74</ele>
        <time>2015-01-20T08:45:46Z</time>
      </trkpt>
      <trkpt lat="44.59644" lon="-0.28454">
        <ele>37.63</ele>
        <time>2015-01-20T08:45:59Z</time>
      </trkpt>
      <trkpt lat="44.59644" lon="-0.2845">
        <ele>36.19</ele>
        <time>2015-01-20T08:46:02Z</time>
      </trkpt>
      <trkpt lat="44.59644" lon="-0.28447">
        <ele>37.15</ele>
        <time>2015-01-20T08:46:04Z</time>
      </trkpt>
      <trkpt lat="44.59643" lon="-0.28441">
        <ele>38.11</ele>
        <time>2015-01-20T08:46:08Z</time>
      </trkpt>
      <trkpt lat="44.59643" lon="-0.2843">
        <ele>39.55</ele>
        <time>2015-01-20T08:46:17Z</time>
      </trkpt>
      <trkpt lat="44.59643" lon="-0.2841">
        <ele>41.47</ele>
        <time>2015-01-20T08:46:32Z</time>
      </trkpt>
      <trkpt lat="44.59643" lon="-0.28403">
        <ele>42.92</ele>
        <time>2015-01-20T08:46:37Z</time>
      </trkpt>
      <trkpt lat="44.59644" lon="-0.28389">
        <ele>42.44</ele>
        <time>2015-01-20T08:46:48Z</time>
      </trkpt>
      <trkpt lat="44.59645" lon="-0.28385">
        <ele>43.88</ele>
        <time>2015-01-20T08:46:51Z</time>
      </trkpt>
      <trkpt lat="44.59645" lon="-0.28381">
        <ele>44.36</ele>
        <time>2015-01-20T08:46:53Z</time>
      </trkpt>
      <trkpt lat="44.59644" lon="-0.28359">
        <ele>45.8</ele>
        <time>2015-01-20T08:47:07Z</time>
      </trkpt>
      <trkpt lat="44.59644" lon="-0.28351">
        <ele>47.24</ele>
        <time>2015-01-20T08:47:13Z</time>
      </trkpt>
      <trkpt lat="44.59642" lon="-0.28332">
        <ele>48.2</ele>
        <time>2015-01-20T08:47:25Z</time>
      </trkpt>
      <trkpt lat="44.5964" lon="-0.28312">
        <ele>50.13</ele>
        <time>2015-01-20T08:47:37Z</time>
      </trkpt>
      <trkpt lat="44.59639" lon="-0.28285">
        <ele>51.09</ele>
        <time>2015-01-20T08:47:51Z</time>
      </trkpt>
      <trkpt lat="44.59637" lon="-0.28255">
        <ele>50.61</ele>
        <time>2015-01-20T08:48:07Z</time>
      </trkpt>
      <trkpt lat="44.59637" lon="-0.28232">
        <ele>50.61</ele>
        <time>2015-01-20T08:48:20Z</time>
      </trkpt>
      <trkpt lat="44.59636" lon="-0.28201">
        <ele>49.16</ele>
        <time>2015-01-20T08:48:37Z</time>
      </trkpt>
      <trkpt lat="44.59637" lon="-0.28191">
        <ele>49.16</ele>
        <time>2015-01-20T08:48:49Z</time>
      </trkpt>
      <trkpt lat="44.59637" lon="-0.28186">
        <ele>49.16</ele>
        <time>2015-01-20T08:49:07Z</time>
      </trkpt>
      <trkpt lat="44.59637" lon="-0.28185">
        <ele>49.16</ele>
        <time>2015-01-20T08:49:28Z</time>
      </trkpt>
      <trkpt lat="44.5964" lon="-0.28187">
        <ele>49.16</ele>
        <time>2015-01-20T08:49:44Z</time>
      </trkpt>
      <trkpt lat="44.59642" lon="-0.28186">
        <ele>48.68</ele>
        <time>2015-01-20T08:50:00Z</time>
      </trkpt>
      <trkpt lat="44.59641" lon="-0.28184">
        <ele>48.68</ele>
        <time>2015-01-20T08:50:28Z</time>
      </trkpt>
      <trkpt lat="44.59641" lon="-0.28185">
        <ele>48.68</ele>
        <time>2015-01-20T08:50:48Z</time>
      </trkpt>
      <trkpt lat="44.59639" lon="-0.2817">
        <ele>48.68</ele>
        <time>2015-01-20T08:51:02Z</time>
      </trkpt>
      <trkpt lat="44.59639" lon="-0.28158">
        <ele>50.13</ele>
        <time>2015-01-20T08:51:16Z</time>
      </trkpt>
      <trkpt lat="44.59638" lon="-0.28161">
        <ele>50.61</ele>
        <time>2015-01-20T08:51:39Z</time>
      </trkpt>
      <trkpt lat="44.5964" lon="-0.28186">
        <ele>49.65</ele>
        <time>2015-01-20T08:51:55Z</time>
      </trkpt>
      <trkpt lat="44.59647" lon="-0.28191">
        <ele>48.68</ele>
        <time>2015-01-20T08:52:03Z</time>
      </trkpt>
      <trkpt lat="44.59659" lon="-0.28206">
        <ele>48.2</ele>
        <time>2015-01-20T08:52:20Z</time>
      </trkpt>
      <trkpt lat="44.59666" lon="-0.28225">
        <ele>48.2</ele>
        <time>2015-01-20T08:52:36Z</time>
      </trkpt>
      <trkpt lat="44.59674" lon="-0.28242">
        <ele>48.2</ele>
        <time>2015-01-20T08:52:50Z</time>
      </trkpt>
      <trkpt lat="44.59683" lon="-0.28256">
        <ele>50.13</ele>
        <time>2015-01-20T08:53:04Z</time>
      </trkpt>
      <trkpt lat="44.59693" lon="-0.28267">
        <ele>51.09</ele>
        <time>2015-01-20T08:53:19Z</time>
      </trkpt>
      <trkpt lat="44.59703" lon="-0.28275">
        <ele>52.05</ele>
        <time>2015-01-20T08:53:33Z</time>
      </trkpt>
      <trkpt lat="44.5971" lon="-0.28278">
        <ele>53.49</ele>
        <time>2015-01-20T08:53:48Z</time>
      </trkpt>
      <trkpt lat="44.59715" lon="-0.28279">
        <ele>55.89</ele>
        <time>2015-01-20T08:54:00Z</time>
      </trkpt>
      <trkpt lat="44.5972" lon="-0.28282">
        <ele>57.82</ele>
        <time>2015-01-20T08:54:15Z</time>
      </trkpt>
      <trkpt lat="44.59728" lon="-0.28289">
        <ele>58.78</ele>
        <time>2015-01-20T08:54:29Z</time>
      </trkpt>
      <trkpt lat="44.59735" lon="-0.28299">
        <ele>59.26</ele>
        <time>2015-01-20T08:54:44Z</time>
      </trkpt>
      <trkpt lat="44.59738" lon="-0.28305">
        <ele>57.82</ele>
        <time>2015-01-20T08:54:53Z</time>
      </trkpt>
      <trkpt lat="44.59745" lon="-0.28314">
        <ele>59.26</ele>
        <time>2015-01-20T08:55:07Z</time>
      </trkpt>
      <trkpt lat="44.59756" lon="-0.28321">
        <ele>59.26</ele>
        <time>2015-01-20T08:55:24Z</time>
      </trkpt>
      <trkpt lat="44.59764" lon="-0.28327">
        <ele>59.74</ele>
        <time>2015-01-20T08:55:34Z</time>
      </trkpt>
      <trkpt lat="44.59775" lon="-0.28334">
        <ele>58.3</ele>
        <time>2015-01-20T08:55:48Z</time>
      </trkpt>
      <trkpt lat="44.59783" lon="-0.28336">
        <ele>58.3</ele>
        <time>2015-01-20T08:55:55Z</time>
      </trkpt>
      <trkpt lat="44.59795" lon="-0.28339">
        <ele>58.78</ele>
        <time>2015-01-20T08:56:06Z</time>
      </trkpt>
      <trkpt lat="44.5981" lon="-0.28337">
        <ele>59.74</ele>
        <time>2015-01-20T08:56:21Z</time>
      </trkpt>
      <trkpt lat="44.59824" lon="-0.28333">
        <ele>60.7</ele>
        <time>2015-01-20T08:56:36Z</time>
      </trkpt>
      <trkpt lat="44.59814" lon="-0.28324">
        <ele>63.58</ele>
        <time>2015-01-20T08:56:56Z</time>
      </trkpt>
      <trkpt lat="44.59804" lon="-0.28314">
        <ele>65.51</ele>
        <time>2015-01-20T08:57:12Z</time>
      </trkpt>
      <trkpt lat="44.59791" lon="-0.28307">
        <ele>67.91</ele>
        <time>2015-01-20T08:57:29Z</time>
      </trkpt>
      <trkpt lat="44.5979" lon="-0.28307">
        <ele>67.91</ele>
        <time>2015-01-20T08:57:30Z</time>
      </trkpt>
      <trkpt lat="44.59775" lon="-0.283">
        <ele>69.83</ele>
        <time>2015-01-20T08:57:48Z</time>
      </trkpt>
      <trkpt lat="44.59761" lon="-0.2829">
        <ele>71.27</ele>
        <time>2015-01-20T08:58:07Z</time>
      </trkpt>
      <trkpt lat="44.59765" lon="-0.28281">
        <ele>71.76</ele>
        <time>2015-01-20T08:58:24Z</time>
      </trkpt>
      <trkpt lat="44.59771" lon="-0.28268">
        <ele>74.16</ele>
        <time>2015-01-20T08:58:37Z</time>
      </trkpt>
      <trkpt lat="44.59776" lon="-0.28261">
        <ele>75.12</ele>
        <time>2015-01-20T08:58:46Z</time>
      </trkpt>
      <trkpt lat="44.59788" lon="-0.28247">
        <ele>77.52</ele>
        <time>2015-01-20T08:59:02Z</time>
      </trkpt>
      <trkpt lat="44.59796" lon="-0.28234">
        <ele>78.48</ele>
        <time>2015-01-20T08:59:15Z</time>
      </trkpt>
      <trkpt lat="44.59797" lon="-0.28234">
        <ele>78.97</ele>
        <time>2015-01-20T08:59:33Z</time>
      </trkpt>
      <trkpt lat="44.59799" lon="-0.28234">
        <ele>78</ele>
        <time>2015-01-20T08:59:36Z</time>
      </trkpt>
      <trkpt lat="44.59804" lon="-0.28226">
        <ele>79.45</ele>
        <time>2015-01-20T08:59:44Z</time>
      </trkpt>
      <trkpt lat="44.59814" lon="-0.28211">
        <ele>80.89</ele>
        <time>2015-01-20T08:59:59Z</time>
      </trkpt>
      <trkpt lat="44.59813" lon="-0.28208">
        <ele>80.89</ele>
        <time>2015-01-20T09:00:15Z</time>
      </trkpt>
      <trkpt lat="44.5982" lon="-0.282">
        <ele>81.85</ele>
        <time>2015-01-20T09:00:34Z</time>
      </trkpt>
      <trkpt lat="44.59829" lon="-0.28189">
        <ele>82.81</ele>
        <time>2015-01-20T09:00:49Z</time>
      </trkpt>
      <trkpt lat="44.59835" lon="-0.28184">
        <ele>83.77</ele>
        <time>2015-01-20T09:01:01Z</time>
      </trkpt>
      <trkpt lat="44.59836" lon="-0.28184">
        <ele>82.33</ele>
        <time>2015-01-20T09:01:02Z</time>
      </trkpt>
      <trkpt lat="44.59838" lon="-0.28185">
        <ele>84.73</ele>
        <time>2015-01-20T09:01:05Z</time>
      </trkpt>
      <trkpt lat="44.59841" lon="-0.28186">
        <ele>84.73</ele>
        <time>2015-01-20T09:01:18Z</time>
      </trkpt>
      <trkpt lat="44.59848" lon="-0.28197">
        <ele>84.73</ele>
        <time>2015-01-20T09:01:32Z</time>
      </trkpt>
      <trkpt lat="44.59862" lon="-0.28209">
        <ele>84.73</ele>
        <time>2015-01-20T09:01:46Z</time>
      </trkpt>
      <trkpt lat="44.59867" lon="-0.28212">
        <ele>84.73</ele>
        <time>2015-01-20T09:01:51Z</time>
      </trkpt>
      <trkpt lat="44.59872" lon="-0.28209">
        <ele>84.73</ele>
        <time>2015-01-20T09:01:57Z</time>
      </trkpt>
      <trkpt lat="44.59875" lon="-0.28206">
        <ele>84.73</ele>
        <time>2015-01-20T09:02:00Z</time>
      </trkpt>
      <trkpt lat="44.59876" lon="-0.28205">
        <ele>84.73</ele>
        <time>2015-01-20T09:02:02Z</time>
      </trkpt>
      <trkpt lat="44.59878" lon="-0.28203">
        <ele>84.73</ele>
        <time>2015-01-20T09:02:04Z</time>
      </trkpt>
      <trkpt lat="44.59879" lon="-0.28202">
        <ele>84.73</ele>
        <time>2015-01-20T09:02:06Z</time>
      </trkpt>
      <trkpt lat="44.59887" lon="-0.28195">
        <ele>85.21</ele>
        <time>2015-01-20T09:02:15Z</time>
      </trkpt>
      <trkpt lat="44.59899" lon="-0.2818">
        <ele>86.66</ele>
        <time>2015-01-20T09:02:30Z</time>
      </trkpt>
      <trkpt lat="44.59908" lon="-0.28168">
        <ele>87.14</ele>
        <time>2015-01-20T09:02:43Z</time>
      </trkpt>
      <trkpt lat="44.59917" lon="-0.28156">
        <ele>88.58</ele>
        <time>2015-01-20T09:02:58Z</time>
      </trkpt>
      <trkpt lat="44.59928" lon="-0.28143">
        <ele>89.54</ele>
        <time>2015-01-20T09:03:13Z</time>
      </trkpt>
      <trkpt lat="44.59931" lon="-0.28141">
        <ele>89.54</ele>
        <time>2015-01-20T09:03:16Z</time>
      </trkpt>
      <trkpt lat="44.59939" lon="-0.28126">
        <ele>90.98</ele>
        <time>2015-01-20T09:03:31Z</time>
      </trkpt>
      <trkpt lat="44.59938" lon="-0.28115">
        <ele>91.94</ele>
        <time>2015-01-20T09:03:41Z</time>
      </trkpt>
      <trkpt lat="44.59935" lon="-0.28104">
        <ele>92.9</ele>
        <time>2015-01-20T09:03:51Z</time>
      </trkpt>
      <trkpt lat="44.59946" lon="-0.28093">
        <ele>93.87</ele>
        <time>2015-01-20T09:04:05Z</time>
      </trkpt>
      <trkpt lat="44.59955" lon="-0.2808">
        <ele>95.31</ele>
        <time>2015-01-20T09:04:18Z</time>
      </trkpt>
      <trkpt lat="44.59964" lon="-0.28066">
        <ele>95.79</ele>
        <time>2015-01-20T09:04:32Z</time>
      </trkpt>
      <trkpt lat="44.59972" lon="-0.28055">
        <ele>96.27</ele>
        <time>2015-01-20T09:04:48Z</time>
      </trkpt>
      <trkpt lat="44.59976" lon="-0.28044">
        <ele>97.23</ele>
        <time>2015-01-20T09:05:00Z</time>
      </trkpt>
      <trkpt lat="44.5998" lon="-0.28031">
        <ele>98.67</ele>
        <time>2015-01-20T09:05:12Z</time>
      </trkpt>
      <trkpt lat="44.5998" lon="-0.2803">
        <ele>98.67</ele>
        <time>2015-01-20T09:05:13Z</time>
      </trkpt>
      <trkpt lat="44.5998" lon="-0.28026">
        <ele>98.67</ele>
        <time>2015-01-20T09:05:17Z</time>
      </trkpt>
      <trkpt lat="44.59977" lon="-0.28015">
        <ele>99.15</ele>
        <time>2015-01-20T09:05:25Z</time>
      </trkpt>
      <trkpt lat="44.5997" lon="-0.28002">
        <ele>100.11</ele>
        <time>2015-01-20T09:05:39Z</time>
      </trkpt>
      <trkpt lat="44.59963" lon="-0.27992">
        <ele>101.56</ele>
        <time>2015-01-20T09:05:53Z</time>
      </trkpt>
      <trkpt lat="44.59955" lon="-0.27978">
        <ele>101.56</ele>
        <time>2015-01-20T09:06:04Z</time>
      </trkpt>
      <trkpt lat="44.59954" lon="-0.2797">
        <ele>102.52</ele>
        <time>2015-01-20T09:06:09Z</time>
      </trkpt>
      <trkpt lat="44.59953" lon="-0.27966">
        <ele>103</ele>
        <time>2015-01-20T09:06:12Z</time>
      </trkpt>
      <trkpt lat="44.59956" lon="-0.27946">
        <ele>103.48</ele>
        <time>2015-01-20T09:06:25Z</time>
      </trkpt>
      <trkpt lat="44.5997" lon="-0.27932">
        <ele>104.92</ele>
        <time>2015-01-20T09:06:40Z</time>
      </trkpt>
      <trkpt lat="44.5998" lon="-0.2792">
        <ele>105.88</ele>
        <time>2015-01-20T09:06:53Z</time>
      </trkpt>
      <trkpt lat="44.59991" lon="-0.27904">
        <ele>106.84</ele>
        <time>2015-01-20T09:07:07Z</time>
      </trkpt>
      <trkpt lat="44.6" lon="-0.27891">
        <ele>107.81</ele>
        <time>2015-01-20T09:07:20Z</time>
      </trkpt>
      <trkpt lat="44.60011" lon="-0.27876">
        <ele>108.29</ele>
        <time>2015-01-20T09:07:35Z</time>
      </trkpt>
      <trkpt lat="44.60023" lon="-0.27862">
        <ele>109.25</ele>
        <time>2015-01-20T09:07:50Z</time>
      </trkpt>
      <trkpt lat="44.60033" lon="-0.2785">
        <ele>111.17</ele>
        <time>2015-01-20T09:08:05Z</time>
      </trkpt>
      <trkpt lat="44.60043" lon="-0.27857">
        <ele>111.17</ele>
        <time>2015-01-20T09:08:17Z</time>
      </trkpt>
      <trkpt lat="44.60059" lon="-0.27864">
        <ele>109.73</ele>
        <time>2015-01-20T09:08:33Z</time>
      </trkpt>
      <trkpt lat="44.60078" lon="-0.27865">
        <ele>109.25</ele>
        <time>2015-01-20T09:08:48Z</time>
      </trkpt>
      <trkpt lat="44.60096" lon="-0.27857">
        <ele>109.25</ele>
        <time>2015-01-20T09:09:04Z</time>
      </trkpt>
      <trkpt lat="44.60108" lon="-0.27843">
        <ele>109.25</ele>
        <time>2015-01-20T09:09:19Z</time>
      </trkpt>
      <trkpt lat="44.60119" lon="-0.27827">
        <ele>108.77</ele>
        <time>2015-01-20T09:09:33Z</time>
      </trkpt>
      <trkpt lat="44.60128" lon="-0.27811">
        <ele>108.77</ele>
        <time>2015-01-20T09:09:46Z</time>
      </trkpt>
      <trkpt lat="44.60136" lon="-0.27799">
        <ele>108.77</ele>
        <time>2015-01-20T09:09:57Z</time>
      </trkpt>
      <trkpt lat="44.60147" lon="-0.27781">
        <ele>109.73</ele>
        <time>2015-01-20T09:10:12Z</time>
      </trkpt>
      <trkpt lat="44.6016" lon="-0.27764">
        <ele>109.73</ele>
        <time>2015-01-20T09:10:27Z</time>
      </trkpt>
      <trkpt lat="44.60173" lon="-0.27748">
        <ele>108.77</ele>
        <time>2015-01-20T09:10:43Z</time>
      </trkpt>
      <trkpt lat="44.60176" lon="-0.27735">
        <ele>108.77</ele>
        <time>2015-01-20T09:10:54Z</time>
      </trkpt>
      <trkpt lat="44.60163" lon="-0.27719">
        <ele>108.77</ele>
        <time>2015-01-20T09:11:10Z</time>
      </trkpt>
      <trkpt lat="44.6015" lon="-0.27704">
        <ele>110.21</ele>
        <time>2015-01-20T09:11:25Z</time>
      </trkpt>
      <trkpt lat="44.60139" lon="-0.27692">
        <ele>111.17</ele>
        <time>2015-01-20T09:11:38Z</time>
      </trkpt>
      <trkpt lat="44.60128" lon="-0.2768">
        <ele>111.17</ele>
        <time>2015-01-20T09:11:53Z</time>
      </trkpt>
      <trkpt lat="44.60118" lon="-0.27671">
        <ele>111.17</ele>
        <time>2015-01-20T09:12:05Z</time>
      </trkpt>
      <trkpt lat="44.60102" lon="-0.27659">
        <ele>112.13</ele>
        <time>2015-01-20T09:12:21Z</time>
      </trkpt>
      <trkpt lat="44.60093" lon="-0.2765">
        <ele>112.61</ele>
        <time>2015-01-20T09:12:34Z</time>
      </trkpt>
      <trkpt lat="44.60092" lon="-0.2765">
        <ele>112.61</ele>
        <time>2015-01-20T09:12:56Z</time>
      </trkpt>
      <trkpt lat="44.60091" lon="-0.2765">
        <ele>113.09</ele>
        <time>2015-01-20T09:13:15Z</time>
      </trkpt>
      <trkpt lat="44.60091" lon="-0.2765">
        <ele>113.09</ele>
        <time>2015-01-20T09:13:48Z</time>
      </trkpt>
      <trkpt lat="44.6009" lon="-0.27649">
        <ele>113.09</ele>
        <time>2015-01-20T09:14:16Z</time>
      </trkpt>
      <trkpt lat="44.60082" lon="-0.27641">
        <ele>113.09</ele>
        <time>2015-01-20T09:14:32Z</time>
      </trkpt>
      <trkpt lat="44.60081" lon="-0.27639">
        <ele>113.09</ele>
        <time>2015-01-20T09:14:51Z</time>
      </trkpt>
      <trkpt lat="44.60073" lon="-0.27632">
        <ele>113.09</ele>
        <time>2015-01-20T09:15:16Z</time>
      </trkpt>
      <trkpt lat="44.6006" lon="-0.27618">
        <ele>113.57</ele>
        <time>2015-01-20T09:15:31Z</time>
      </trkpt>
      <trkpt lat="44.60045" lon="-0.27603">
        <ele>114.05</ele>
        <time>2015-01-20T09:15:47Z</time>
      </trkpt>
      <trkpt lat="44.6003" lon="-0.27589">
        <ele>114.53</ele>
        <time>2015-01-20T09:16:02Z</time>
      </trkpt>
      <trkpt lat="44.60014" lon="-0.27575">
        <ele>114.53</ele>
        <time>2015-01-20T09:16:18Z</time>
      </trkpt>
      <trkpt lat="44.6" lon="-0.27561">
        <ele>115.5</ele>
        <time>2015-01-20T09:16:32Z</time>
      </trkpt>
      <trkpt lat="44.59985" lon="-0.27548">
        <ele>115.98</ele>
        <time>2015-01-20T09:16:47Z</time>
      </trkpt>
      <trkpt lat="44.59972" lon="-0.27532">
        <ele>116.46</ele>
        <time>2015-01-20T09:17:03Z</time>
      </trkpt>
      <trkpt lat="44.5996" lon="-0.27521">
        <ele>116.46</ele>
        <time>2015-01-20T09:17:17Z</time>
      </trkpt>
      <trkpt lat="44.59946" lon="-0.27508">
        <ele>116.94</ele>
        <time>2015-01-20T09:17:32Z</time>
      </trkpt>
      <trkpt lat="44.59934" lon="-0.27494">
        <ele>117.42</ele>
        <time>2015-01-20T09:17:48Z</time>
      </trkpt>
      <trkpt lat="44.59921" lon="-0.27479">
        <ele>117.9</ele>
        <time>2015-01-20T09:18:03Z</time>
      </trkpt>
      <trkpt lat="44.59908" lon="-0.27461">
        <ele>117.9</ele>
        <time>2015-01-20T09:18:20Z</time>
      </trkpt>
      <trkpt lat="44.59897" lon="-0.27445">
        <ele>117.9</ele>
        <time>2015-01-20T09:18:35Z</time>
      </trkpt>
      <trkpt lat="44.59879" lon="-0.27428">
        <ele>116.46</ele>
        <time>2015-01-20T09:18:53Z</time>
      </trkpt>
      <trkpt lat="44.59878" lon="-0.27428">
        <ele>116.46</ele>
        <time>2015-01-20T09:18:54Z</time>
      </trkpt>
      <trkpt lat="44.59861" lon="-0.27418">
        <ele>115.98</ele>
        <time>2015-01-20T09:19:11Z</time>
      </trkpt>
      <trkpt lat="44.59847" lon="-0.27412">
        <ele>115.5</ele>
        <time>2015-01-20T09:19:25Z</time>
      </trkpt>
      <trkpt lat="44.59837" lon="-0.27409">
        <ele>115.01</ele>
        <time>2015-01-20T09:19:39Z</time>
      </trkpt>
      <trkpt lat="44.59827" lon="-0.27406">
        <ele>114.53</ele>
        <time>2015-01-20T09:19:52Z</time>
      </trkpt>
      <trkpt lat="44.59827" lon="-0.27408">
        <ele>114.05</ele>
        <time>2015-01-20T09:20:07Z</time>
      </trkpt>
      <trkpt lat="44.59828" lon="-0.27407">
        <ele>114.05</ele>
        <time>2015-01-20T09:20:25Z</time>
      </trkpt>
      <trkpt lat="44.5983" lon="-0.27406">
        <ele>114.05</ele>
        <time>2015-01-20T09:20:40Z</time>
      </trkpt>
      <trkpt lat="44.5984" lon="-0.27408">
        <ele>114.05</ele>
        <time>2015-01-20T09:20:55Z</time>
      </trkpt>
      <trkpt lat="44.59841" lon="-0.27408">
        <ele>114.05</ele>
        <time>2015-01-20T09:20:56Z</time>
      </trkpt>
      <trkpt lat="44.5986" lon="-0.27413">
        <ele>115.98</ele>
        <time>2015-01-20T09:21:13Z</time>
      </trkpt>
      <trkpt lat="44.59874" lon="-0.27421">
        <ele>116.46</ele>
        <time>2015-01-20T09:21:27Z</time>
      </trkpt>
      <trkpt lat="44.5989" lon="-0.27435">
        <ele>117.42</ele>
        <time>2015-01-20T09:21:43Z</time>
      </trkpt>
      <trkpt lat="44.59903" lon="-0.27452">
        <ele>117.42</ele>
        <time>2015-01-20T09:21:59Z</time>
      </trkpt>
      <trkpt lat="44.59912" lon="-0.27465">
        <ele>117.9</ele>
        <time>2015-01-20T09:22:11Z</time>
      </trkpt>
      <trkpt lat="44.59923" lon="-0.27481">
        <ele>117.9</ele>
        <time>2015-01-20T09:22:25Z</time>
      </trkpt>
      <trkpt lat="44.59937" lon="-0.27497">
        <ele>118.38</ele>
        <time>2015-01-20T09:22:40Z</time>
      </trkpt>
      <trkpt lat="44.59942" lon="-0.27503">
        <ele>118.38</ele>
        <time>2015-01-20T09:22:46Z</time>
      </trkpt>
      <trkpt lat="44.59958" lon="-0.27519">
        <ele>118.38</ele>
        <time>2015-01-20T09:23:03Z</time>
      </trkpt>
      <trkpt lat="44.59972" lon="-0.27532">
        <ele>116.94</ele>
        <time>2015-01-20T09:23:17Z</time>
      </trkpt>
      <trkpt lat="44.59988" lon="-0.27547">
        <ele>116.94</ele>
        <time>2015-01-20T09:23:33Z</time>
      </trkpt>
      <trkpt lat="44.60002" lon="-0.27561">
        <ele>115.98</ele>
        <time>2015-01-20T09:23:48Z</time>
      </trkpt>
      <trkpt lat="44.60015" lon="-0.27574">
        <ele>115.5</ele>
        <time>2015-01-20T09:24:01Z</time>
      </trkpt>
      <trkpt lat="44.60032" lon="-0.2759">
        <ele>115.01</ele>
        <time>2015-01-20T09:24:17Z</time>
      </trkpt>
      <trkpt lat="44.60046" lon="-0.27604">
        <ele>114.53</ele>
        <time>2015-01-20T09:24:31Z</time>
      </trkpt>
      <trkpt lat="44.60062" lon="-0.27619">
        <ele>114.05</ele>
        <time>2015-01-20T09:24:47Z</time>
      </trkpt>
      <trkpt lat="44.60077" lon="-0.27633">
        <ele>113.57</ele>
        <time>2015-01-20T09:25:02Z</time>
      </trkpt>
      <trkpt lat="44.60091" lon="-0.27646">
        <ele>113.09</ele>
        <time>2015-01-20T09:25:15Z</time>
      </trkpt>
      <trkpt lat="44.60109" lon="-0.2766">
        <ele>113.09</ele>
        <time>2015-01-20T09:25:32Z</time>
      </trkpt>
      <trkpt lat="44.60123" lon="-0.27673">
        <ele>112.13</ele>
        <time>2015-01-20T09:25:47Z</time>
      </trkpt>
      <trkpt lat="44.60138" lon="-0.27689">
        <ele>111.65</ele>
        <time>2015-01-20T09:26:03Z</time>
      </trkpt>
      <trkpt lat="44.60153" lon="-0.27705">
        <ele>111.17</ele>
        <time>2015-01-20T09:26:18Z</time>
      </trkpt>
      <trkpt lat="44.60167" lon="-0.2772">
        <ele>110.69</ele>
        <time>2015-01-20T09:26:33Z</time>
      </trkpt>
      <trkpt lat="44.60181" lon="-0.27737">
        <ele>109.73</ele>
        <time>2015-01-20T09:26:48Z</time>
      </trkpt>
      <trkpt lat="44.60193" lon="-0.27751">
        <ele>109.25</ele>
        <time>2015-01-20T09:27:01Z</time>
      </trkpt>
      <trkpt lat="44.60209" lon="-0.27767">
        <ele>108.77</ele>
        <time>2015-01-20T09:27:17Z</time>
      </trkpt>
      <trkpt lat="44.60221" lon="-0.27779">
        <ele>108.29</ele>
        <time>2015-01-20T09:27:31Z</time>
      </trkpt>
      <trkpt lat="44.60234" lon="-0.27793">
        <ele>107.81</ele>
        <time>2015-01-20T09:27:45Z</time>
      </trkpt>
      <trkpt lat="44.60253" lon="-0.27809">
        <ele>107.32</ele>
        <time>2015-01-20T09:28:02Z</time>
      </trkpt>
      <trkpt lat="44.60268" lon="-0.27819">
        <ele>107.81</ele>
        <time>2015-01-20T09:28:16Z</time>
      </trkpt>
      <trkpt lat="44.60283" lon="-0.27813">
        <ele>107.81</ele>
        <time>2015-01-20T09:28:31Z</time>
      </trkpt>
      <trkpt lat="44.60296" lon="-0.27801">
        <ele>107.81</ele>
        <time>2015-01-20T09:28:44Z</time>
      </trkpt>
      <trkpt lat="44.60309" lon="-0.27789">
        <ele>107.81</ele>
        <time>2015-01-20T09:28:57Z</time>
      </trkpt>
      <trkpt lat="44.60324" lon="-0.27777">
        <ele>107.81</ele>
        <time>2015-01-20T09:29:11Z</time>
      </trkpt>
      <trkpt lat="44.60338" lon="-0.27769">
        <ele>106.84</ele>
        <time>2015-01-20T09:29:23Z</time>
      </trkpt>
      <trkpt lat="44.60346" lon="-0.27764">
        <ele>106.36</ele>
        <time>2015-01-20T09:29:37Z</time>
      </trkpt>
      <trkpt lat="44.60353" lon="-0.27766">
        <ele>106.36</ele>
        <time>2015-01-20T09:29:55Z</time>
      </trkpt>
      <trkpt lat="44.60355" lon="-0.27764">
        <ele>106.36</ele>
        <time>2015-01-20T09:30:10Z</time>
      </trkpt>
      <trkpt lat="44.60355" lon="-0.27765">
        <ele>106.36</ele>
        <time>2015-01-20T09:30:29Z</time>
      </trkpt>
      <trkpt lat="44.60353" lon="-0.27765">
        <ele>106.36</ele>
        <time>2015-01-20T09:30:54Z</time>
      </trkpt>
      <trkpt lat="44.60354" lon="-0.27767">
        <ele>106.36</ele>
        <time>2015-01-20T09:31:18Z</time>
      </trkpt>
      <trkpt lat="44.60354" lon="-0.27768">
        <ele>106.36</ele>
        <time>2015-01-20T09:31:38Z</time>
      </trkpt>
      <trkpt lat="44.60354" lon="-0.27767">
        <ele>106.36</ele>
        <time>2015-01-20T09:32:01Z</time>
      </trkpt>
      <trkpt lat="44.60354" lon="-0.27767">
        <ele>106.36</ele>
        <time>2015-01-20T09:32:23Z</time>
      </trkpt>
      <trkpt lat="44.60354" lon="-0.27767">
        <ele>106.36</ele>
        <time>2015-01-20T09:32:45Z</time>
      </trkpt>
      <trkpt lat="44.60353" lon="-0.27767">
        <ele>105.88</ele>
        <time>2015-01-20T09:33:13Z</time>
      </trkpt>
      <trkpt lat="44.60354" lon="-0.27767">
        <ele>105.88</ele>
        <time>2015-01-20T09:33:42Z</time>
      </trkpt>
      <trkpt lat="44.60355" lon="-0.27768">
        <ele>105.88</ele>
        <time>2015-01-20T09:34:10Z</time>
      </trkpt>
      <trkpt lat="44.60354" lon="-0.27766">
        <ele>105.88</ele>
        <time>2015-01-20T09:34:36Z</time>
      </trkpt>
      <trkpt lat="44.60355" lon="-0.27767">
        <ele>105.88</ele>
        <time>2015-01-20T09:34:56Z</time>
      </trkpt>
      <trkpt lat="44.60355" lon="-0.27765">
        <ele>105.88</ele>
        <time>2015-01-20T09:35:24Z</time>
      </trkpt>
      <trkpt lat="44.60355" lon="-0.27765">
        <ele>105.88</ele>
        <time>2015-01-20T09:35:48Z</time>
      </trkpt>
      <trkpt lat="44.60354" lon="-0.27766">
        <ele>105.88</ele>
        <time>2015-01-20T09:36:10Z</time>
      </trkpt>
      <trkpt lat="44.60354" lon="-0.27765">
        <ele>105.88</ele>
        <time>2015-01-20T09:36:36Z</time>
      </trkpt>
      <trkpt lat="44.60355" lon="-0.27765">
        <ele>105.4</ele>
        <time>2015-01-20T09:36:59Z</time>
      </trkpt>
      <trkpt lat="44.60354" lon="-0.27766">
        <ele>105.4</ele>
        <time>2015-01-20T09:37:17Z</time>
      </trkpt>
      <trkpt lat="44.60355" lon="-0.27766">
        <ele>105.4</ele>
        <time>2015-01-20T09:37:43Z</time>
      </trkpt>
      <trkpt lat="44.60355" lon="-0.27766">
        <ele>105.4</ele>
        <time>2015-01-20T09:38:06Z</time>
      </trkpt>
      <trkpt lat="44.60355" lon="-0.27766">
        <ele>105.4</ele>
        <time>2015-01-20T09:38:27Z</time>
      </trkpt>
      <trkpt lat="44.60354" lon="-0.27763">
        <ele>105.4</ele>
        <time>2015-01-20T09:38:48Z</time>
      </trkpt>
      <trkpt lat="44.60353" lon="-0.27764">
        <ele>105.4</ele>
        <time>2015-01-20T09:39:10Z</time>
      </trkpt>
      <trkpt lat="44.60354" lon="-0.27768">
        <ele>105.4</ele>
        <time>2015-01-20T09:39:33Z</time>
      </trkpt>
      <trkpt lat="44.60353" lon="-0.27766">
        <ele>105.4</ele>
        <time>2015-01-20T09:39:58Z</time>
      </trkpt>
      <trkpt lat="44.60353" lon="-0.27766">
        <ele>105.4</ele>
        <time>2015-01-20T09:40:16Z</time>
      </trkpt>
      <trkpt lat="44.60354" lon="-0.27765">
        <ele>105.4</ele>
        <time>2015-01-20T09:40:47Z</time>
      </trkpt>
      <trkpt lat="44.60354" lon="-0.27766">
        <ele>104.92</ele>
        <time>2015-01-20T09:41:15Z</time>
      </trkpt>
      <trkpt lat="44.60354" lon="-0.27766">
        <ele>104.92</ele>
        <time>2015-01-20T09:41:37Z</time>
      </trkpt>
      <trkpt lat="44.60354" lon="-0.27766">
        <ele>104.92</ele>
        <time>2015-01-20T09:41:58Z</time>
      </trkpt>
      <trkpt lat="44.60352" lon="-0.27761">
        <ele>104.92</ele>
        <time>2015-01-20T09:42:31Z</time>
      </trkpt>
      <trkpt lat="44.60353" lon="-0.27762">
        <ele>104.92</ele>
        <time>2015-01-20T09:43:01Z</time>
      </trkpt>
      <trkpt lat="44.60353" lon="-0.27764">
        <ele>104.92</ele>
        <time>2015-01-20T09:43:25Z</time>
      </trkpt>
      <trkpt lat="44.60356" lon="-0.27766">
        <ele>104.92</ele>
        <time>2015-01-20T09:43:54Z</time>
      </trkpt>
      <trkpt lat="44.60357" lon="-0.27768">
        <ele>105.4</ele>
        <time>2015-01-20T09:44:20Z</time>
      </trkpt>
      <trkpt lat="44.60356" lon="-0.2777">
        <ele>105.4</ele>
        <time>2015-01-20T09:44:47Z</time>
      </trkpt>
      <trkpt lat="44.60355" lon="-0.27769">
        <ele>105.4</ele>
        <time>2015-01-20T09:45:18Z</time>
      </trkpt>
      <trkpt lat="44.60355" lon="-0.27769">
        <ele>105.4</ele>
        <time>2015-01-20T09:45:35Z</time>
      </trkpt>
      <trkpt lat="44.60355" lon="-0.27768">
        <ele>105.4</ele>
        <time>2015-01-20T09:46:04Z</time>
      </trkpt>
      <trkpt lat="44.60355" lon="-0.27764">
        <ele>105.4</ele>
        <time>2015-01-20T09:46:30Z</time>
      </trkpt>
      <trkpt lat="44.60355" lon="-0.27766">
        <ele>105.4</ele>
        <time>2015-01-20T09:46:51Z</time>
      </trkpt>
      <trkpt lat="44.60354" lon="-0.27765">
        <ele>105.4</ele>
        <time>2015-01-20T09:46:54Z</time>
      </trkpt>
      <trkpt lat="44.6035" lon="-0.27762">
        <ele>104.92</ele>
        <time>2015-01-20T09:46:58Z</time>
      </trkpt>
      <trkpt lat="44.60335" lon="-0.27749">
        <ele>103.96</ele>
        <time>2015-01-20T09:47:14Z</time>
      </trkpt>
      <trkpt lat="44.60331" lon="-0.27746">
        <ele>104.92</ele>
        <time>2015-01-20T09:47:19Z</time>
      </trkpt>
      <trkpt lat="44.60317" lon="-0.27738">
        <ele>104.92</ele>
        <time>2015-01-20T09:47:33Z</time>
      </trkpt>
      <trkpt lat="44.60322" lon="-0.27741">
        <ele>104.92</ele>
        <time>2015-01-20T09:47:46Z</time>
      </trkpt>
      <trkpt lat="44.60327" lon="-0.27741">
        <ele>103</ele>
        <time>2015-01-20T09:47:56Z</time>
      </trkpt>
      <trkpt lat="44.60321" lon="-0.27727">
        <ele>100.6</ele>
        <time>2015-01-20T09:48:14Z</time>
      </trkpt>
      <trkpt lat="44.60321" lon="-0.27728">
        <ele>100.6</ele>
        <time>2015-01-20T09:48:52Z</time>
      </trkpt>
      <trkpt lat="44.60321" lon="-0.27729">
        <ele>100.6</ele>
        <time>2015-01-20T09:48:57Z</time>
      </trkpt>
      <trkpt lat="44.60326" lon="-0.27737">
        <ele>102.04</ele>
        <time>2015-01-20T09:49:05Z</time>
      </trkpt>
      <trkpt lat="44.60332" lon="-0.27747">
        <ele>103.48</ele>
        <time>2015-01-20T09:49:16Z</time>
      </trkpt>
      <trkpt lat="44.60345" lon="-0.27759">
        <ele>104.92</ele>
        <time>2015-01-20T09:49:31Z</time>
      </trkpt>
      <trkpt lat="44.60351" lon="-0.27766">
        <ele>105.4</ele>
        <time>2015-01-20T09:49:46Z</time>
      </trkpt>
      <trkpt lat="44.60353" lon="-0.27772">
        <ele>105.4</ele>
        <time>2015-01-20T09:50:04Z</time>
      </trkpt>
      <trkpt lat="44.60353" lon="-0.27771">
        <ele>104.92</ele>
        <time>2015-01-20T09:50:30Z</time>
      </trkpt>
      <trkpt lat="44.60354" lon="-0.27771">
        <ele>104.92</ele>
        <time>2015-01-20T09:50:50Z</time>
      </trkpt>
      <trkpt lat="44.60355" lon="-0.2777">
        <ele>104.92</ele>
        <time>2015-01-20T09:51:07Z</time>
      </trkpt>
      <trkpt lat="44.60355" lon="-0.2777">
        <ele>104.92</ele>
        <time>2015-01-20T09:51:28Z</time>
      </trkpt>
      <trkpt lat="44.60355" lon="-0.27771">
        <ele>104.92</ele>
        <time>2015-01-20T09:51:43Z</time>
      </trkpt>
      <trkpt lat="44.60356" lon="-0.27772">
        <ele>104.92</ele>
        <time>2015-01-20T09:52:09Z</time>
      </trkpt>
      <trkpt lat="44.60355" lon="-0.27771">
        <ele>104.92</ele>
        <time>2015-01-20T09:52:35Z</time>
      </trkpt>
      <trkpt lat="44.60355" lon="-0.27773">
        <ele>104.92</ele>
        <time>2015-01-20T09:53:03Z</time>
      </trkpt>
      <trkpt lat="44.60357" lon="-0.27772">
        <ele>104.44</ele>
        <time>2015-01-20T09:53:29Z</time>
      </trkpt>
      <trkpt lat="44.60355" lon="-0.27772">
        <ele>104.44</ele>
        <time>2015-01-20T09:53:47Z</time>
      </trkpt>
      <trkpt lat="44.60348" lon="-0.27765">
        <ele>104.44</ele>
        <time>2015-01-20T09:54:00Z</time>
      </trkpt>
      <trkpt lat="44.60347" lon="-0.27761">
        <ele>104.44</ele>
        <time>2015-01-20T09:54:15Z</time>
      </trkpt>
      <trkpt lat="44.60349" lon="-0.2776">
        <ele>104.44</ele>
        <time>2015-01-20T09:54:20Z</time>
      </trkpt>
      <trkpt lat="44.60354" lon="-0.27756">
        <ele>103</ele>
        <time>2015-01-20T09:54:26Z</time>
      </trkpt>
      <trkpt lat="44.60373" lon="-0.27747">
        <ele>102.52</ele>
        <time>2015-01-20T09:54:40Z</time>
      </trkpt>
      <trkpt lat="44.60389" lon="-0.27737">
        <ele>101.08</ele>
        <time>2015-01-20T09:54:55Z</time>
      </trkpt>
      <trkpt lat="44.60403" lon="-0.27727">
        <ele>100.6</ele>
        <time>2015-01-20T09:55:09Z</time>
      </trkpt>
      <trkpt lat="44.60406" lon="-0.27725">
        <ele>99.63</ele>
        <time>2015-01-20T09:55:12Z</time>
      </trkpt>
      <trkpt lat="44.60408" lon="-0.27715">
        <ele>99.15</ele>
        <time>2015-01-20T09:55:19Z</time>
      </trkpt>
      <trkpt lat="44.60406" lon="-0.27699">
        <ele>96.27</ele>
        <time>2015-01-20T09:55:31Z</time>
      </trkpt>
      <trkpt lat="44.60407" lon="-0.27695">
        <ele>95.31</ele>
        <time>2015-01-20T09:55:34Z</time>
      </trkpt>
      <trkpt lat="44.60407" lon="-0.27692">
        <ele>95.31</ele>
        <time>2015-01-20T09:55:36Z</time>
      </trkpt>
      <trkpt lat="44.60407" lon="-0.27688">
        <ele>94.83</ele>
        <time>2015-01-20T09:55:39Z</time>
      </trkpt>
      <trkpt lat="44.60407" lon="-0.27667">
        <ele>92.9</ele>
        <time>2015-01-20T09:55:53Z</time>
      </trkpt>
      <trkpt lat="44.60407" lon="-0.27647">
        <ele>91.46</ele>
        <time>2015-01-20T09:56:07Z</time>
      </trkpt>
      <trkpt lat="44.60409" lon="-0.27635">
        <ele>91.46</ele>
        <time>2015-01-20T09:56:15Z</time>
      </trkpt>
      <trkpt lat="44.60413" lon="-0.27613">
        <ele>89.54</ele>
        <time>2015-01-20T09:56:30Z</time>
      </trkpt>
      <trkpt lat="44.60422" lon="-0.27594">
        <ele>89.54</ele>
        <time>2015-01-20T09:56:43Z</time>
      </trkpt>
      <trkpt lat="44.60427" lon="-0.27586">
        <ele>89.54</ele>
        <time>2015-01-20T09:56:49Z</time>
      </trkpt>
      <trkpt lat="44.60436" lon="-0.27566">
        <ele>89.54</ele>
        <time>2015-01-20T09:57:03Z</time>
      </trkpt>
      <trkpt lat="44.60443" lon="-0.2755">
        <ele>89.54</ele>
        <time>2015-01-20T09:57:15Z</time>
      </trkpt>
      <trkpt lat="44.60452" lon="-0.2753">
        <ele>87.62</ele>
        <time>2015-01-20T09:57:30Z</time>
      </trkpt>
      <trkpt lat="44.6046" lon="-0.27511">
        <ele>86.18</ele>
        <time>2015-01-20T09:57:45Z</time>
      </trkpt>
      <trkpt lat="44.60466" lon="-0.27495">
        <ele>84.25</ele>
        <time>2015-01-20T09:57:59Z</time>
      </trkpt>
      <trkpt lat="44.60475" lon="-0.27483">
        <ele>82.33</ele>
        <time>2015-01-20T09:58:12Z</time>
      </trkpt>
      <trkpt lat="44.60476" lon="-0.27473">
        <ele>81.85</ele>
        <time>2015-01-20T09:58:27Z</time>
      </trkpt>
      <trkpt lat="44.60475" lon="-0.27469">
        <ele>81.37</ele>
        <time>2015-01-20T09:58:31Z</time>
      </trkpt>
      <trkpt lat="44.60466" lon="-0.27453">
        <ele>79.93</ele>
        <time>2015-01-20T09:58:46Z</time>
      </trkpt>
      <trkpt lat="44.60463" lon="-0.27441">
        <ele>78.48</ele>
        <time>2015-01-20T09:58:58Z</time>
      </trkpt>
      <trkpt lat="44.60461" lon="-0.27434">
        <ele>78</ele>
        <time>2015-01-20T09:59:12Z</time>
      </trkpt>
      <trkpt lat="44.60464" lon="-0.2743">
        <ele>77.04</ele>
        <time>2015-01-20T09:59:28Z</time>
      </trkpt>
      <trkpt lat="44.60463" lon="-0.27426">
        <ele>77.04</ele>
        <time>2015-01-20T09:59:44Z</time>
      </trkpt>
      <trkpt lat="44.60457" lon="-0.27417">
        <ele>76.08</ele>
        <time>2015-01-20T09:59:57Z</time>
      </trkpt>
      <trkpt lat="44.60456" lon="-0.27418">
        <ele>76.08</ele>
        <time>2015-01-20T10:00:14Z</time>
      </trkpt>
      <trkpt lat="44.6046" lon="-0.27421">
        <ele>76.08</ele>
        <time>2015-01-20T10:00:33Z</time>
      </trkpt>
      <trkpt lat="44.60474" lon="-0.27429">
        <ele>77.04</ele>
        <time>2015-01-20T10:00:48Z</time>
      </trkpt>
      <trkpt lat="44.60487" lon="-0.27439">
        <ele>78.48</ele>
        <time>2015-01-20T10:01:02Z</time>
      </trkpt>
      <trkpt lat="44.60499" lon="-0.27448">
        <ele>80.89</ele>
        <time>2015-01-20T10:01:16Z</time>
      </trkpt>
      <trkpt lat="44.60507" lon="-0.27453">
        <ele>82.33</ele>
        <time>2015-01-20T10:01:25Z</time>
      </trkpt>
      <trkpt lat="44.60519" lon="-0.27448">
        <ele>83.29</ele>
        <time>2015-01-20T10:01:38Z</time>
      </trkpt>
      <trkpt lat="44.60522" lon="-0.27447">
        <ele>83.77</ele>
        <time>2015-01-20T10:01:41Z</time>
      </trkpt>
      <trkpt lat="44.60531" lon="-0.27438">
        <ele>84.25</ele>
        <time>2015-01-20T10:01:52Z</time>
      </trkpt>
      <trkpt lat="44.60537" lon="-0.27431">
        <ele>85.21</ele>
        <time>2015-01-20T10:02:00Z</time>
      </trkpt>
      <trkpt lat="44.60544" lon="-0.27422">
        <ele>86.18</ele>
        <time>2015-01-20T10:02:15Z</time>
      </trkpt>
      <trkpt lat="44.60543" lon="-0.27421">
        <ele>85.69</ele>
        <time>2015-01-20T10:02:37Z</time>
      </trkpt>
      <trkpt lat="44.60544" lon="-0.27422">
        <ele>85.69</ele>
        <time>2015-01-20T10:02:55Z</time>
      </trkpt>
      <trkpt lat="44.6055" lon="-0.27417">
        <ele>86.18</ele>
        <time>2015-01-20T10:03:08Z</time>
      </trkpt>
      <trkpt lat="44.60561" lon="-0.27406">
        <ele>87.14</ele>
        <time>2015-01-20T10:03:21Z</time>
      </trkpt>
      <trkpt lat="44.60574" lon="-0.2739">
        <ele>87.62</ele>
        <time>2015-01-20T10:03:36Z</time>
      </trkpt>
      <trkpt lat="44.60579" lon="-0.27368">
        <ele>87.62</ele>
        <time>2015-01-20T10:03:50Z</time>
      </trkpt>
      <trkpt lat="44.60578" lon="-0.27345">
        <ele>86.18</ele>
        <time>2015-01-20T10:04:04Z</time>
      </trkpt>
      <trkpt lat="44.60577" lon="-0.27323">
        <ele>85.21</ele>
        <time>2015-01-20T10:04:17Z</time>
      </trkpt>
      <trkpt lat="44.60579" lon="-0.27299">
        <ele>84.73</ele>
        <time>2015-01-20T10:04:31Z</time>
      </trkpt>
      <trkpt lat="44.60585" lon="-0.27276">
        <ele>84.25</ele>
        <time>2015-01-20T10:04:45Z</time>
      </trkpt>
      <trkpt lat="44.60595" lon="-0.27256">
        <ele>82.81</ele>
        <time>2015-01-20T10:04:59Z</time>
      </trkpt>
      <trkpt lat="44.60607" lon="-0.27236">
        <ele>82.33</ele>
        <time>2015-01-20T10:05:14Z</time>
      </trkpt>
      <trkpt lat="44.60613" lon="-0.2722">
        <ele>81.37</ele>
        <time>2015-01-20T10:05:26Z</time>
      </trkpt>
      <trkpt lat="44.60611" lon="-0.27198">
        <ele>79.93</ele>
        <time>2015-01-20T10:05:41Z</time>
      </trkpt>
      <trkpt lat="44.60606" lon="-0.27181">
        <ele>78.48</ele>
        <time>2015-01-20T10:05:52Z</time>
      </trkpt>
      <trkpt lat="44.60598" lon="-0.27158">
        <ele>77.04</ele>
        <time>2015-01-20T10:06:07Z</time>
      </trkpt>
      <trkpt lat="44.60592" lon="-0.27138">
        <ele>75.6</ele>
        <time>2015-01-20T10:06:22Z</time>
      </trkpt>
      <trkpt lat="44.60588" lon="-0.27112">
        <ele>73.2</ele>
        <time>2015-01-20T10:06:39Z</time>
      </trkpt>
      <trkpt lat="44.60587" lon="-0.27096">
        <ele>71.27</ele>
        <time>2015-01-20T10:06:49Z</time>
      </trkpt>
      <trkpt lat="44.60588" lon="-0.27072">
        <ele>69.35</ele>
        <time>2015-01-20T10:07:04Z</time>
      </trkpt>
      <trkpt lat="44.60589" lon="-0.27052">
        <ele>67.91</ele>
        <time>2015-01-20T10:07:18Z</time>
      </trkpt>
      <trkpt lat="44.60593" lon="-0.27033">
        <ele>66.95</ele>
        <time>2015-01-20T10:07:30Z</time>
      </trkpt>
      <trkpt lat="44.60595" lon="-0.27016">
        <ele>65.99</ele>
        <time>2015-01-20T10:07:41Z</time>
      </trkpt>
      <trkpt lat="44.606" lon="-0.26995">
        <ele>62.62</ele>
        <time>2015-01-20T10:07:58Z</time>
      </trkpt>
      <trkpt lat="44.60606" lon="-0.26976">
        <ele>61.66</ele>
        <time>2015-01-20T10:08:12Z</time>
      </trkpt>
      <trkpt lat="44.60611" lon="-0.26959">
        <ele>60.22</ele>
        <time>2015-01-20T10:08:22Z</time>
      </trkpt>
      <trkpt lat="44.60616" lon="-0.26942">
        <ele>59.74</ele>
        <time>2015-01-20T10:08:35Z</time>
      </trkpt>
      <trkpt lat="44.60616" lon="-0.26938">
        <ele>59.26</ele>
        <time>2015-01-20T10:08:37Z</time>
      </trkpt>
      <trkpt lat="44.60617" lon="-0.26915">
        <ele>58.78</ele>
        <time>2015-01-20T10:08:50Z</time>
      </trkpt>
      <trkpt lat="44.60612" lon="-0.26894">
        <ele>57.82</ele>
        <time>2015-01-20T10:09:04Z</time>
      </trkpt>
      <trkpt lat="44.60605" lon="-0.26873">
        <ele>57.34</ele>
        <time>2015-01-20T10:09:20Z</time>
      </trkpt>
      <trkpt lat="44.60605" lon="-0.26868">
        <ele>58.3</ele>
        <time>2015-01-20T10:09:24Z</time>
      </trkpt>
      <trkpt lat="44.60605" lon="-0.26865">
        <ele>58.3</ele>
        <time>2015-01-20T10:09:26Z</time>
      </trkpt>
      <trkpt lat="44.60605" lon="-0.26846">
        <ele>60.7</ele>
        <time>2015-01-20T10:09:40Z</time>
      </trkpt>
      <trkpt lat="44.60607" lon="-0.26824">
        <ele>62.62</ele>
        <time>2015-01-20T10:09:55Z</time>
      </trkpt>
      <trkpt lat="44.60607" lon="-0.26815">
        <ele>63.1</ele>
        <time>2015-01-20T10:10:01Z</time>
      </trkpt>
      <trkpt lat="44.60609" lon="-0.26798">
        <ele>64.55</ele>
        <time>2015-01-20T10:10:15Z</time>
      </trkpt>
      <trkpt lat="44.60612" lon="-0.26791">
        <ele>65.99</ele>
        <time>2015-01-20T10:10:22Z</time>
      </trkpt>
      <trkpt lat="44.60621" lon="-0.26794">
        <ele>66.95</ele>
        <time>2015-01-20T10:10:36Z</time>
      </trkpt>
      <trkpt lat="44.60623" lon="-0.26794">
        <ele>67.91</ele>
        <time>2015-01-20T10:10:50Z</time>
      </trkpt>
      <trkpt lat="44.60615" lon="-0.26792">
        <ele>66.95</ele>
        <time>2015-01-20T10:11:06Z</time>
      </trkpt>
      <trkpt lat="44.60611" lon="-0.26788">
        <ele>65.99</ele>
        <time>2015-01-20T10:11:12Z</time>
      </trkpt>
      <trkpt lat="44.60609" lon="-0.26786">
        <ele>65.99</ele>
        <time>2015-01-20T10:11:15Z</time>
      </trkpt>
      <trkpt lat="44.6061" lon="-0.26782">
        <ele>65.51</ele>
        <time>2015-01-20T10:11:18Z</time>
      </trkpt>
      <trkpt lat="44.60611" lon="-0.26763">
        <ele>65.51</ele>
        <time>2015-01-20T10:11:33Z</time>
      </trkpt>
      <trkpt lat="44.60612" lon="-0.26742">
        <ele>67.91</ele>
        <time>2015-01-20T10:11:48Z</time>
      </trkpt>
      <trkpt lat="44.60615" lon="-0.26718">
        <ele>68.39</ele>
        <time>2015-01-20T10:12:04Z</time>
      </trkpt>
      <trkpt lat="44.60616" lon="-0.26696">
        <ele>68.87</ele>
        <time>2015-01-20T10:12:20Z</time>
      </trkpt>
      <trkpt lat="44.60616" lon="-0.26693">
        <ele>68.87</ele>
        <time>2015-01-20T10:12:22Z</time>
      </trkpt>
      <trkpt lat="44.60614" lon="-0.26691">
        <ele>68.87</ele>
        <time>2015-01-20T10:12:24Z</time>
      </trkpt>
      <trkpt lat="44.606" lon="-0.26687">
        <ele>66.47</ele>
        <time>2015-01-20T10:12:39Z</time>
      </trkpt>
      <trkpt lat="44.60584" lon="-0.26681">
        <ele>64.07</ele>
        <time>2015-01-20T10:12:55Z</time>
      </trkpt>
      <trkpt lat="44.60581" lon="-0.26678">
        <ele>63.1</ele>
        <time>2015-01-20T10:12:58Z</time>
      </trkpt>
      <trkpt lat="44.60587" lon="-0.26654">
        <ele>64.07</ele>
        <time>2015-01-20T10:13:13Z</time>
      </trkpt>
      <trkpt lat="44.60593" lon="-0.26632">
        <ele>64.55</ele>
        <time>2015-01-20T10:13:28Z</time>
      </trkpt>
      <trkpt lat="44.60596" lon="-0.26609">
        <ele>64.07</ele>
        <time>2015-01-20T10:13:43Z</time>
      </trkpt>
      <trkpt lat="44.60601" lon="-0.26583">
        <ele>64.07</ele>
        <time>2015-01-20T10:13:59Z</time>
      </trkpt>
      <trkpt lat="44.60602" lon="-0.2658">
        <ele>62.62</ele>
        <time>2015-01-20T10:14:01Z</time>
      </trkpt>
      <trkpt lat="44.60605" lon="-0.2656">
        <ele>62.62</ele>
        <time>2015-01-20T10:14:18Z</time>
      </trkpt>
      <trkpt lat="44.60614" lon="-0.26557">
        <ele>64.07</ele>
        <time>2015-01-20T10:14:31Z</time>
      </trkpt>
      <trkpt lat="44.60623" lon="-0.2656">
        <ele>66.47</ele>
        <time>2015-01-20T10:14:43Z</time>
      </trkpt>
      <trkpt lat="44.60636" lon="-0.26565">
        <ele>68.39</ele>
        <time>2015-01-20T10:14:59Z</time>
      </trkpt>
      <trkpt lat="44.60647" lon="-0.2657">
        <ele>71.27</ele>
        <time>2015-01-20T10:15:14Z</time>
      </trkpt>
      <trkpt lat="44.60657" lon="-0.26574">
        <ele>74.16</ele>
        <time>2015-01-20T10:15:30Z</time>
      </trkpt>
      <trkpt lat="44.60665" lon="-0.26578">
        <ele>76.56</ele>
        <time>2015-01-20T10:15:44Z</time>
      </trkpt>
      <trkpt lat="44.60665" lon="-0.26579">
        <ele>77.04</ele>
        <time>2015-01-20T10:15:45Z</time>
      </trkpt>
      <trkpt lat="44.60674" lon="-0.26582">
        <ele>78.48</ele>
        <time>2015-01-20T10:15:58Z</time>
      </trkpt>
      <trkpt lat="44.60684" lon="-0.26583">
        <ele>80.41</ele>
        <time>2015-01-20T10:16:12Z</time>
      </trkpt>
      <trkpt lat="44.60696" lon="-0.26586">
        <ele>81.37</ele>
        <time>2015-01-20T10:16:27Z</time>
      </trkpt>
      <trkpt lat="44.60696" lon="-0.26577">
        <ele>81.37</ele>
        <time>2015-01-20T10:16:37Z</time>
      </trkpt>
      <trkpt lat="44.60699" lon="-0.26553">
        <ele>78</ele>
        <time>2015-01-20T10:16:54Z</time>
      </trkpt>
      <trkpt lat="44.60703" lon="-0.26529">
        <ele>76.08</ele>
        <time>2015-01-20T10:17:11Z</time>
      </trkpt>
      <trkpt lat="44.6071" lon="-0.26503">
        <ele>74.16</ele>
        <time>2015-01-20T10:17:27Z</time>
      </trkpt>
      <trkpt lat="44.60713" lon="-0.26478">
        <ele>72.24</ele>
        <time>2015-01-20T10:17:43Z</time>
      </trkpt>
      <trkpt lat="44.60713" lon="-0.26452">
        <ele>70.79</ele>
        <time>2015-01-20T10:17:58Z</time>
      </trkpt>
      <trkpt lat="44.60709" lon="-0.26431">
        <ele>69.83</ele>
        <time>2015-01-20T10:18:11Z</time>
      </trkpt>
      <trkpt lat="44.60701" lon="-0.26408">
        <ele>68.87</ele>
        <time>2015-01-20T10:18:26Z</time>
      </trkpt>
      <trkpt lat="44.60693" lon="-0.26387">
        <ele>67.91</ele>
        <time>2015-01-20T10:18:41Z</time>
      </trkpt>
      <trkpt lat="44.60691" lon="-0.2637">
        <ele>67.43</ele>
        <time>2015-01-20T10:18:53Z</time>
      </trkpt>
      <trkpt lat="44.60694" lon="-0.26362">
        <ele>66.95</ele>
        <time>2015-01-20T10:18:58Z</time>
      </trkpt>
      <trkpt lat="44.60705" lon="-0.26343">
        <ele>65.51</ele>
        <time>2015-01-20T10:19:14Z</time>
      </trkpt>
      <trkpt lat="44.60713" lon="-0.26325">
        <ele>63.58</ele>
        <time>2015-01-20T10:19:29Z</time>
      </trkpt>
      <trkpt lat="44.60715" lon="-0.26319">
        <ele>63.58</ele>
        <time>2015-01-20T10:19:44Z</time>
      </trkpt>
      <trkpt lat="44.60723" lon="-0.26304">
        <ele>62.14</ele>
        <time>2015-01-20T10:19:58Z</time>
      </trkpt>
      <trkpt lat="44.60723" lon="-0.263">
        <ele>61.66</ele>
        <time>2015-01-20T10:20:11Z</time>
      </trkpt>
      <trkpt lat="44.60721" lon="-0.26299">
        <ele>61.18</ele>
        <time>2015-01-20T10:20:25Z</time>
      </trkpt>
      <trkpt lat="44.60727" lon="-0.26301">
        <ele>61.18</ele>
        <time>2015-01-20T10:20:42Z</time>
      </trkpt>
      <trkpt lat="44.60726" lon="-0.26301">
        <ele>61.66</ele>
        <time>2015-01-20T10:20:59Z</time>
      </trkpt>
      <trkpt lat="44.60729" lon="-0.26291">
        <ele>61.66</ele>
        <time>2015-01-20T10:21:14Z</time>
      </trkpt>
      <trkpt lat="44.60729" lon="-0.2629">
        <ele>60.7</ele>
        <time>2015-01-20T10:21:16Z</time>
      </trkpt>
      <trkpt lat="44.60736" lon="-0.26278">
        <ele>59.74</ele>
        <time>2015-01-20T10:21:29Z</time>
      </trkpt>
      <trkpt lat="44.60741" lon="-0.26274">
        <ele>58.78</ele>
        <time>2015-01-20T10:21:42Z</time>
      </trkpt>
      <trkpt lat="44.60749" lon="-0.26262">
        <ele>56.86</ele>
        <time>2015-01-20T10:21:54Z</time>
      </trkpt>
      <trkpt lat="44.60759" lon="-0.26249">
        <ele>53.49</ele>
        <time>2015-01-20T10:22:08Z</time>
      </trkpt>
      <trkpt lat="44.6077" lon="-0.26236">
        <ele>50.61</ele>
        <time>2015-01-20T10:22:23Z</time>
      </trkpt>
      <trkpt lat="44.60775" lon="-0.26223">
        <ele>48.68</ele>
        <time>2015-01-20T10:22:36Z</time>
      </trkpt>
      <trkpt lat="44.60776" lon="-0.2622">
        <ele>48.68</ele>
        <time>2015-01-20T10:22:43Z</time>
      </trkpt>
      <trkpt lat="44.60777" lon="-0.26218">
        <ele>48.2</ele>
        <time>2015-01-20T10:22:45Z</time>
      </trkpt>
      <trkpt lat="44.60779" lon="-0.26202">
        <ele>46.76</ele>
        <time>2015-01-20T10:23:00Z</time>
      </trkpt>
      <trkpt lat="44.60783" lon="-0.26195">
        <ele>46.28</ele>
        <time>2015-01-20T10:23:22Z</time>
      </trkpt>
      <trkpt lat="44.60787" lon="-0.26173">
        <ele>44.84</ele>
        <time>2015-01-20T10:23:39Z</time>
      </trkpt>
      <trkpt lat="44.60787" lon="-0.26171">
        <ele>44.84</ele>
        <time>2015-01-20T10:23:40Z</time>
      </trkpt>
      <trkpt lat="44.60794" lon="-0.26148">
        <ele>43.88</ele>
        <time>2015-01-20T10:23:56Z</time>
      </trkpt>
      <trkpt lat="44.60804" lon="-0.26133">
        <ele>42.92</ele>
        <time>2015-01-20T10:24:11Z</time>
      </trkpt>
      <trkpt lat="44.60805" lon="-0.26131">
        <ele>42.92</ele>
        <time>2015-01-20T10:24:13Z</time>
      </trkpt>
      <trkpt lat="44.60809" lon="-0.26132">
        <ele>42.92</ele>
        <time>2015-01-20T10:24:17Z</time>
      </trkpt>
      <trkpt lat="44.60823" lon="-0.26134">
        <ele>44.36</ele>
        <time>2015-01-20T10:24:29Z</time>
      </trkpt>
      <trkpt lat="44.60838" lon="-0.26134">
        <ele>45.32</ele>
        <time>2015-01-20T10:24:42Z</time>
      </trkpt>
      <trkpt lat="44.60839" lon="-0.26134">
        <ele>45.8</ele>
        <time>2015-01-20T10:24:43Z</time>
      </trkpt>
      <trkpt lat="44.60846" lon="-0.2613">
        <ele>46.28</ele>
        <time>2015-01-20T10:24:48Z</time>
      </trkpt>
      <trkpt lat="44.60855" lon="-0.26108">
        <ele>48.2</ele>
        <time>2015-01-20T10:25:04Z</time>
      </trkpt>
      <trkpt lat="44.60862" lon="-0.26089">
        <ele>49.65</ele>
        <time>2015-01-20T10:25:22Z</time>
      </trkpt>
      <trkpt lat="44.60868" lon="-0.26075">
        <ele>51.09</ele>
        <time>2015-01-20T10:25:36Z</time>
      </trkpt>
      <trkpt lat="44.60875" lon="-0.26059">
        <ele>53.01</ele>
        <time>2015-01-20T10:25:49Z</time>
      </trkpt>
      <trkpt lat="44.60881" lon="-0.26046">
        <ele>54.45</ele>
        <time>2015-01-20T10:26:02Z</time>
      </trkpt>
      <trkpt lat="44.60889" lon="-0.26031">
        <ele>56.37</ele>
        <time>2015-01-20T10:26:16Z</time>
      </trkpt>
      <trkpt lat="44.60893" lon="-0.2602">
        <ele>57.34</ele>
        <time>2015-01-20T10:26:28Z</time>
      </trkpt>
      <trkpt lat="44.60897" lon="-0.26009">
        <ele>59.74</ele>
        <time>2015-01-20T10:26:41Z</time>
      </trkpt>
      <trkpt lat="44.60903" lon="-0.25994">
        <ele>62.14</ele>
        <time>2015-01-20T10:26:54Z</time>
      </trkpt>
      <trkpt lat="44.60907" lon="-0.25982">
        <ele>63.1</ele>
        <time>2015-01-20T10:27:05Z</time>
      </trkpt>
      <trkpt lat="44.60908" lon="-0.25977">
        <ele>64.07</ele>
        <time>2015-01-20T10:27:09Z</time>
      </trkpt>
      <trkpt lat="44.60915" lon="-0.2596">
        <ele>65.99</ele>
        <time>2015-01-20T10:27:23Z</time>
      </trkpt>
      <trkpt lat="44.60922" lon="-0.25943">
        <ele>68.87</ele>
        <time>2015-01-20T10:27:37Z</time>
      </trkpt>
      <trkpt lat="44.60928" lon="-0.25928">
        <ele>70.31</ele>
        <time>2015-01-20T10:27:50Z</time>
      </trkpt>
      <trkpt lat="44.60935" lon="-0.25911">
        <ele>72.24</ele>
        <time>2015-01-20T10:28:04Z</time>
      </trkpt>
      <trkpt lat="44.60942" lon="-0.2589">
        <ele>72.24</ele>
        <time>2015-01-20T10:28:20Z</time>
      </trkpt>
      <trkpt lat="44.60944" lon="-0.25884">
        <ele>73.68</ele>
        <time>2015-01-20T10:28:24Z</time>
      </trkpt>
      <trkpt lat="44.60946" lon="-0.25878">
        <ele>73.68</ele>
        <time>2015-01-20T10:28:29Z</time>
      </trkpt>
      <trkpt lat="44.60953" lon="-0.25863">
        <ele>75.12</ele>
        <time>2015-01-20T10:28:43Z</time>
      </trkpt>
      <trkpt lat="44.60953" lon="-0.25856">
        <ele>75.12</ele>
        <time>2015-01-20T10:28:58Z</time>
      </trkpt>
      <trkpt lat="44.60956" lon="-0.25849">
        <ele>74.16</ele>
        <time>2015-01-20T10:29:05Z</time>
      </trkpt>
      <trkpt lat="44.60959" lon="-0.25842">
        <ele>75.6</ele>
        <time>2015-01-20T10:29:10Z</time>
      </trkpt>
      <trkpt lat="44.60965" lon="-0.25825">
        <ele>75.6</ele>
        <time>2015-01-20T10:29:23Z</time>
      </trkpt>
      <trkpt lat="44.60972" lon="-0.25806">
        <ele>75.6</ele>
        <time>2015-01-20T10:29:37Z</time>
      </trkpt>
      <trkpt lat="44.60985" lon="-0.25791">
        <ele>77.04</ele>
        <time>2015-01-20T10:29:52Z</time>
      </trkpt>
      <trkpt lat="44.60998" lon="-0.25784">
        <ele>78.48</ele>
        <time>2015-01-20T10:30:07Z</time>
      </trkpt>
      <trkpt lat="44.61007" lon="-0.2578">
        <ele>80.41</ele>
        <time>2015-01-20T10:30:19Z</time>
      </trkpt>
      <trkpt lat="44.61012" lon="-0.25778">
        <ele>82.33</ele>
        <time>2015-01-20T10:30:27Z</time>
      </trkpt>
      <trkpt lat="44.61023" lon="-0.25769">
        <ele>85.21</ele>
        <time>2015-01-20T10:30:40Z</time>
      </trkpt>
      <trkpt lat="44.61028" lon="-0.25756">
        <ele>85.21</ele>
        <time>2015-01-20T10:30:54Z</time>
      </trkpt>
      <trkpt lat="44.61024" lon="-0.25755">
        <ele>85.21</ele>
        <time>2015-01-20T10:31:09Z</time>
      </trkpt>
      <trkpt lat="44.61025" lon="-0.25755">
        <ele>85.21</ele>
        <time>2015-01-20T10:31:31Z</time>
      </trkpt>
      <trkpt lat="44.61027" lon="-0.25753">
        <ele>85.21</ele>
        <time>2015-01-20T10:31:57Z</time>
      </trkpt>
      <trkpt lat="44.61027" lon="-0.25753">
        <ele>85.21</ele>
        <time>2015-01-20T10:32:14Z</time>
      </trkpt>
      <trkpt lat="44.61027" lon="-0.25751">
        <ele>85.21</ele>
        <time>2015-01-20T10:32:35Z</time>
      </trkpt>
      <trkpt lat="44.61031" lon="-0.25738">
        <ele>85.21</ele>
        <time>2015-01-20T10:32:50Z</time>
      </trkpt>
      <trkpt lat="44.61036" lon="-0.25716">
        <ele>85.21</ele>
        <time>2015-01-20T10:33:06Z</time>
      </trkpt>
      <trkpt lat="44.61041" lon="-0.25696">
        <ele>85.21</ele>
        <time>2015-01-20T10:33:20Z</time>
      </trkpt>
      <trkpt lat="44.61049" lon="-0.25679">
        <ele>85.21</ele>
        <time>2015-01-20T10:33:33Z</time>
      </trkpt>
      <trkpt lat="44.61059" lon="-0.2566">
        <ele>86.66</ele>
        <time>2015-01-20T10:33:49Z</time>
      </trkpt>
      <trkpt lat="44.61063" lon="-0.25659">
        <ele>87.14</ele>
        <time>2015-01-20T10:33:53Z</time>
      </trkpt>
      <trkpt lat="44.61076" lon="-0.25662">
        <ele>89.06</ele>
        <time>2015-01-20T10:34:07Z</time>
      </trkpt>
      <trkpt lat="44.61088" lon="-0.25669">
        <ele>90.98</ele>
        <time>2015-01-20T10:34:23Z</time>
      </trkpt>
      <trkpt lat="44.61098" lon="-0.25677">
        <ele>93.39</ele>
        <time>2015-01-20T10:34:37Z</time>
      </trkpt>
      <trkpt lat="44.61107" lon="-0.25684">
        <ele>95.31</ele>
        <time>2015-01-20T10:34:49Z</time>
      </trkpt>
      <trkpt lat="44.61117" lon="-0.25693">
        <ele>97.23</ele>
        <time>2015-01-20T10:35:02Z</time>
      </trkpt>
      <trkpt lat="44.61127" lon="-0.25702">
        <ele>99.15</ele>
        <time>2015-01-20T10:35:16Z</time>
      </trkpt>
      <trkpt lat="44.61136" lon="-0.2571">
        <ele>100.11</ele>
        <time>2015-01-20T10:35:29Z</time>
      </trkpt>
      <trkpt lat="44.61138" lon="-0.25714">
        <ele>100.11</ele>
        <time>2015-01-20T10:35:44Z</time>
      </trkpt>
      <trkpt lat="44.61142" lon="-0.25718">
        <ele>100.6</ele>
        <time>2015-01-20T10:36:00Z</time>
      </trkpt>
      <trkpt lat="44.61145" lon="-0.25728">
        <ele>101.08</ele>
        <time>2015-01-20T10:36:19Z</time>
      </trkpt>
      <trkpt lat="44.61146" lon="-0.25729">
        <ele>101.08</ele>
        <time>2015-01-20T10:36:20Z</time>
      </trkpt>
      <trkpt lat="44.61155" lon="-0.25746">
        <ele>101.08</ele>
        <time>2015-01-20T10:36:36Z</time>
      </trkpt>
      <trkpt lat="44.61168" lon="-0.25759">
        <ele>101.08</ele>
        <time>2015-01-20T10:36:50Z</time>
      </trkpt>
      <trkpt lat="44.61184" lon="-0.25766">
        <ele>100.11</ele>
        <time>2015-01-20T10:37:05Z</time>
      </trkpt>
      <trkpt lat="44.612" lon="-0.25772">
        <ele>100.11</ele>
        <time>2015-01-20T10:37:21Z</time>
      </trkpt>
      <trkpt lat="44.61214" lon="-0.25775">
        <ele>100.11</ele>
        <time>2015-01-20T10:37:34Z</time>
      </trkpt>
      <trkpt lat="44.6123" lon="-0.2578">
        <ele>99.63</ele>
        <time>2015-01-20T10:37:48Z</time>
      </trkpt>
      <trkpt lat="44.6125" lon="-0.25788">
        <ele>99.63</ele>
        <time>2015-01-20T10:38:06Z</time>
      </trkpt>
      <trkpt lat="44.61262" lon="-0.25795">
        <ele>100.6</ele>
        <time>2015-01-20T10:38:17Z</time>
      </trkpt>
      <trkpt lat="44.61279" lon="-0.25803">
        <ele>100.6</ele>
        <time>2015-01-20T10:38:32Z</time>
      </trkpt>
      <trkpt lat="44.61298" lon="-0.25811">
        <ele>100.6</ele>
        <time>2015-01-20T10:38:49Z</time>
      </trkpt>
      <trkpt lat="44.61304" lon="-0.25812">
        <ele>99.63</ele>
        <time>2015-01-20T10:38:54Z</time>
      </trkpt>
      <trkpt lat="44.6132" lon="-0.25812">
        <ele>98.19</ele>
        <time>2015-01-20T10:39:08Z</time>
      </trkpt>
      <trkpt lat="44.61318" lon="-0.25814">
        <ele>98.19</ele>
        <time>2015-01-20T10:39:18Z</time>
      </trkpt>
      <trkpt lat="44.61318" lon="-0.25815">
        <ele>98.19</ele>
        <time>2015-01-20T10:39:26Z</time>
      </trkpt>
      <trkpt lat="44.61324" lon="-0.25823">
        <ele>97.71</ele>
        <time>2015-01-20T10:39:39Z</time>
      </trkpt>
      <trkpt lat="44.61331" lon="-0.25831">
        <ele>95.31</ele>
        <time>2015-01-20T10:39:53Z</time>
      </trkpt>
      <trkpt lat="44.61331" lon="-0.25847">
        <ele>93.39</ele>
        <time>2015-01-20T10:40:07Z</time>
      </trkpt>
      <trkpt lat="44.61332" lon="-0.25866">
        <ele>90.98</ele>
        <time>2015-01-20T10:40:22Z</time>
      </trkpt>
      <trkpt lat="44.61333" lon="-0.2588">
        <ele>89.54</ele>
        <time>2015-01-20T10:40:36Z</time>
      </trkpt>
      <trkpt lat="44.61334" lon="-0.25888">
        <ele>88.58</ele>
        <time>2015-01-20T10:40:53Z</time>
      </trkpt>
      <trkpt lat="44.61336" lon="-0.25905">
        <ele>86.66</ele>
        <time>2015-01-20T10:41:08Z</time>
      </trkpt>
      <trkpt lat="44.61338" lon="-0.25922">
        <ele>83.77</ele>
        <time>2015-01-20T10:41:22Z</time>
      </trkpt>
      <trkpt lat="44.61339" lon="-0.25937">
        <ele>81.37</ele>
        <time>2015-01-20T10:41:37Z</time>
      </trkpt>
      <trkpt lat="44.6134" lon="-0.25952">
        <ele>78.97</ele>
        <time>2015-01-20T10:41:51Z</time>
      </trkpt>
      <trkpt lat="44.61341" lon="-0.2597">
        <ele>75.6</ele>
        <time>2015-01-20T10:42:06Z</time>
      </trkpt>
      <trkpt lat="44.61341" lon="-0.25985">
        <ele>73.2</ele>
        <time>2015-01-20T10:42:21Z</time>
      </trkpt>
      <trkpt lat="44.61342" lon="-0.26002">
        <ele>69.83</ele>
        <time>2015-01-20T10:42:36Z</time>
      </trkpt>
      <trkpt lat="44.61341" lon="-0.26022">
        <ele>66.95</ele>
        <time>2015-01-20T10:42:53Z</time>
      </trkpt>
      <trkpt lat="44.61342" lon="-0.2604">
        <ele>65.03</ele>
        <time>2015-01-20T10:43:05Z</time>
      </trkpt>
      <trkpt lat="44.61342" lon="-0.26053">
        <ele>64.07</ele>
        <time>2015-01-20T10:43:18Z</time>
      </trkpt>
      <trkpt lat="44.61344" lon="-0.26066">
        <ele>62.14</ele>
        <time>2015-01-20T10:43:33Z</time>
      </trkpt>
      <trkpt lat="44.61344" lon="-0.26074">
        <ele>61.18</ele>
        <time>2015-01-20T10:43:49Z</time>
      </trkpt>
      <trkpt lat="44.61351" lon="-0.26065">
        <ele>61.18</ele>
        <time>2015-01-20T10:44:30Z</time>
      </trkpt>
      <trkpt lat="44.6135" lon="-0.26067">
        <ele>61.18</ele>
        <time>2015-01-20T10:44:51Z</time>
      </trkpt>
      <trkpt lat="44.61348" lon="-0.26075">
        <ele>61.18</ele>
        <time>2015-01-20T10:45:18Z</time>
      </trkpt>
      <trkpt lat="44.61343" lon="-0.26097">
        <ele>59.74</ele>
        <time>2015-01-20T10:45:31Z</time>
      </trkpt>
      <trkpt lat="44.61344" lon="-0.26102">
        <ele>59.26</ele>
        <time>2015-01-20T10:45:35Z</time>
      </trkpt>
      <trkpt lat="44.61344" lon="-0.26105">
        <ele>59.26</ele>
        <time>2015-01-20T10:45:37Z</time>
      </trkpt>
      <trkpt lat="44.61345" lon="-0.26121">
        <ele>57.34</ele>
        <time>2015-01-20T10:45:52Z</time>
      </trkpt>
      <trkpt lat="44.61341" lon="-0.26128">
        <ele>57.34</ele>
        <time>2015-01-20T10:46:07Z</time>
      </trkpt>
      <trkpt lat="44.61335" lon="-0.2613">
        <ele>56.37</ele>
        <time>2015-01-20T10:46:19Z</time>
      </trkpt>
      <trkpt lat="44.61324" lon="-0.26138">
        <ele>55.41</ele>
        <time>2015-01-20T10:46:33Z</time>
      </trkpt>
      <trkpt lat="44.61322" lon="-0.26153">
        <ele>55.41</ele>
        <time>2015-01-20T10:46:48Z</time>
      </trkpt>
      <trkpt lat="44.61331" lon="-0.26163">
        <ele>54.93</ele>
        <time>2015-01-20T10:47:03Z</time>
      </trkpt>
      <trkpt lat="44.61333" lon="-0.26167">
        <ele>54.93</ele>
        <time>2015-01-20T10:47:18Z</time>
      </trkpt>
      <trkpt lat="44.61334" lon="-0.26168">
        <ele>54.93</ele>
        <time>2015-01-20T10:47:33Z</time>
      </trkpt>
      <trkpt lat="44.61336" lon="-0.26168">
        <ele>54.93</ele>
        <time>2015-01-20T10:47:53Z</time>
      </trkpt>
      <trkpt lat="44.61336" lon="-0.2617">
        <ele>54.93</ele>
        <time>2015-01-20T10:48:05Z</time>
      </trkpt>
      <trkpt lat="44.6134" lon="-0.26182">
        <ele>55.89</ele>
        <time>2015-01-20T10:48:20Z</time>
      </trkpt>
      <trkpt lat="44.61341" lon="-0.26181">
        <ele>56.37</ele>
        <time>2015-01-20T10:48:24Z</time>
      </trkpt>
      <trkpt lat="44.61352" lon="-0.2617">
        <ele>56.86</ele>
        <time>2015-01-20T10:48:41Z</time>
      </trkpt>
      <trkpt lat="44.61353" lon="-0.26169">
        <ele>56.86</ele>
        <time>2015-01-20T10:48:42Z</time>
      </trkpt>
      <trkpt lat="44.61359" lon="-0.26171">
        <ele>57.34</ele>
        <time>2015-01-20T10:48:49Z</time>
      </trkpt>
      <trkpt lat="44.61366" lon="-0.26181">
        <ele>59.26</ele>
        <time>2015-01-20T10:49:02Z</time>
      </trkpt>
      <trkpt lat="44.61373" lon="-0.2619">
        <ele>60.7</ele>
        <time>2015-01-20T10:49:15Z</time>
      </trkpt>
      <trkpt lat="44.6138" lon="-0.26199">
        <ele>63.1</ele>
        <time>2015-01-20T10:49:30Z</time>
      </trkpt>
      <trkpt lat="44.61385" lon="-0.26206">
        <ele>65.03</ele>
        <time>2015-01-20T10:49:43Z</time>
      </trkpt>
      <trkpt lat="44.61393" lon="-0.26215">
        <ele>66.95</ele>
        <time>2015-01-20T10:49:58Z</time>
      </trkpt>
      <trkpt lat="44.61398" lon="-0.26224">
        <ele>68.87</ele>
        <time>2015-01-20T10:50:10Z</time>
      </trkpt>
      <trkpt lat="44.61405" lon="-0.26234">
        <ele>70.31</ele>
        <time>2015-01-20T10:50:23Z</time>
      </trkpt>
      <trkpt lat="44.61412" lon="-0.26246">
        <ele>71.76</ele>
        <time>2015-01-20T10:50:35Z</time>
      </trkpt>
      <trkpt lat="44.61419" lon="-0.26258">
        <ele>72.24</ele>
        <time>2015-01-20T10:50:47Z</time>
      </trkpt>
      <trkpt lat="44.61425" lon="-0.26273">
        <ele>73.68</ele>
        <time>2015-01-20T10:51:00Z</time>
      </trkpt>
      <trkpt lat="44.61431" lon="-0.2629">
        <ele>74.64</ele>
        <time>2015-01-20T10:51:13Z</time>
      </trkpt>
      <trkpt lat="44.61435" lon="-0.26304">
        <ele>75.6</ele>
        <time>2015-01-20T10:51:24Z</time>
      </trkpt>
      <trkpt lat="44.61435" lon="-0.26307">
        <ele>75.12</ele>
        <time>2015-01-20T10:51:26Z</time>
      </trkpt>
      <trkpt lat="44.61433" lon="-0.26319">
        <ele>75.6</ele>
        <time>2015-01-20T10:51:35Z</time>
      </trkpt>
      <trkpt lat="44.61438" lon="-0.26333">
        <ele>76.08</ele>
        <time>2015-01-20T10:51:49Z</time>
      </trkpt>
      <trkpt lat="44.61445" lon="-0.26345">
        <ele>78</ele>
        <time>2015-01-20T10:52:03Z</time>
      </trkpt>
      <trkpt lat="44.61447" lon="-0.26348">
        <ele>78.97</ele>
        <time>2015-01-20T10:52:07Z</time>
      </trkpt>
      <trkpt lat="44.61457" lon="-0.26362">
        <ele>80.89</ele>
        <time>2015-01-20T10:52:23Z</time>
      </trkpt>
      <trkpt lat="44.61462" lon="-0.26368">
        <ele>81.37</ele>
        <time>2015-01-20T10:52:31Z</time>
      </trkpt>
      <trkpt lat="44.61465" lon="-0.26374">
        <ele>81.85</ele>
        <time>2015-01-20T10:52:36Z</time>
      </trkpt>
      <trkpt lat="44.61477" lon="-0.26389">
        <ele>82.81</ele>
        <time>2015-01-20T10:52:52Z</time>
      </trkpt>
      <trkpt lat="44.61484" lon="-0.26399">
        <ele>84.25</ele>
        <time>2015-01-20T10:53:03Z</time>
      </trkpt>
      <trkpt lat="44.61494" lon="-0.26411">
        <ele>86.18</ele>
        <time>2015-01-20T10:53:17Z</time>
      </trkpt>
      <trkpt lat="44.61504" lon="-0.2642">
        <ele>87.62</ele>
        <time>2015-01-20T10:53:30Z</time>
      </trkpt>
      <trkpt lat="44.61516" lon="-0.26431">
        <ele>89.54</ele>
        <time>2015-01-20T10:53:44Z</time>
      </trkpt>
      <trkpt lat="44.61521" lon="-0.26437">
        <ele>90.98</ele>
        <time>2015-01-20T10:53:50Z</time>
      </trkpt>
      <trkpt lat="44.61526" lon="-0.26444">
        <ele>91.94</ele>
        <time>2015-01-20T10:53:57Z</time>
      </trkpt>
      <trkpt lat="44.61532" lon="-0.26454">
        <ele>92.42</ele>
        <time>2015-01-20T10:54:06Z</time>
      </trkpt>
      <trkpt lat="44.61536" lon="-0.26458">
        <ele>93.87</ele>
        <time>2015-01-20T10:54:21Z</time>
      </trkpt>
      <trkpt lat="44.61544" lon="-0.2647">
        <ele>95.31</ele>
        <time>2015-01-20T10:54:33Z</time>
      </trkpt>
      <trkpt lat="44.61555" lon="-0.26484">
        <ele>97.23</ele>
        <time>2015-01-20T10:54:48Z</time>
      </trkpt>
      <trkpt lat="44.61561" lon="-0.26489">
        <ele>97.23</ele>
        <time>2015-01-20T10:55:00Z</time>
      </trkpt>
      <trkpt lat="44.61569" lon="-0.26504">
        <ele>98.67</ele>
        <time>2015-01-20T10:55:14Z</time>
      </trkpt>
      <trkpt lat="44.61578" lon="-0.26519">
        <ele>99.63</ele>
        <time>2015-01-20T10:55:28Z</time>
      </trkpt>
      <trkpt lat="44.61583" lon="-0.26526">
        <ele>100.6</ele>
        <time>2015-01-20T10:55:36Z</time>
      </trkpt>
      <trkpt lat="44.61591" lon="-0.2654">
        <ele>101.08</ele>
        <time>2015-01-20T10:55:49Z</time>
      </trkpt>
      <trkpt lat="44.616" lon="-0.26555">
        <ele>102.04</ele>
        <time>2015-01-20T10:56:02Z</time>
      </trkpt>
      <trkpt lat="44.61608" lon="-0.26568">
        <ele>102.52</ele>
        <time>2015-01-20T10:56:15Z</time>
      </trkpt>
      <trkpt lat="44.61617" lon="-0.26583">
        <ele>103.48</ele>
        <time>2015-01-20T10:56:29Z</time>
      </trkpt>
      <trkpt lat="44.61627" lon="-0.26599">
        <ele>103.96</ele>
        <time>2015-01-20T10:56:44Z</time>
      </trkpt>
      <trkpt lat="44.61636" lon="-0.26614">
        <ele>103.96</ele>
        <time>2015-01-20T10:56:58Z</time>
      </trkpt>
      <trkpt lat="44.61644" lon="-0.26622">
        <ele>103.96</ele>
        <time>2015-01-20T10:57:11Z</time>
      </trkpt>
      <trkpt lat="44.61646" lon="-0.26625">
        <ele>102.52</ele>
        <time>2015-01-20T10:57:14Z</time>
      </trkpt>
      <trkpt lat="44.6165" lon="-0.26625">
        <ele>102.52</ele>
        <time>2015-01-20T10:57:25Z</time>
      </trkpt>
      <trkpt lat="44.61665" lon="-0.26612">
        <ele>102.52</ele>
        <time>2015-01-20T10:57:40Z</time>
      </trkpt>
      <trkpt lat="44.61671" lon="-0.26602">
        <ele>103.96</ele>
        <time>2015-01-20T10:57:48Z</time>
      </trkpt>
      <trkpt lat="44.61683" lon="-0.26588">
        <ele>104.44</ele>
        <time>2015-01-20T10:58:01Z</time>
      </trkpt>
      <trkpt lat="44.61687" lon="-0.26581">
        <ele>104.44</ele>
        <time>2015-01-20T10:58:07Z</time>
      </trkpt>
      <trkpt lat="44.61688" lon="-0.26578">
        <ele>104.44</ele>
        <time>2015-01-20T10:58:10Z</time>
      </trkpt>
      <trkpt lat="44.6169" lon="-0.26576">
        <ele>104.44</ele>
        <time>2015-01-20T10:58:12Z</time>
      </trkpt>
      <trkpt lat="44.61699" lon="-0.26563">
        <ele>104.44</ele>
        <time>2015-01-20T10:58:28Z</time>
      </trkpt>
      <trkpt lat="44.617" lon="-0.26561">
        <ele>104.92</ele>
        <time>2015-01-20T10:58:45Z</time>
      </trkpt>
      <trkpt lat="44.61699" lon="-0.26561">
        <ele>104.92</ele>
        <time>2015-01-20T10:59:08Z</time>
      </trkpt>
      <trkpt lat="44.61697" lon="-0.2656">
        <ele>104.92</ele>
        <time>2015-01-20T10:59:25Z</time>
      </trkpt>
      <trkpt lat="44.617" lon="-0.26558">
        <ele>104.92</ele>
        <time>2015-01-20T10:59:39Z</time>
      </trkpt>
      <trkpt lat="44.617" lon="-0.2656">
        <ele>104.92</ele>
        <time>2015-01-20T10:59:56Z</time>
      </trkpt>
      <trkpt lat="44.61697" lon="-0.26564">
        <ele>104.92</ele>
        <time>2015-01-20T11:00:14Z</time>
      </trkpt>
      <trkpt lat="44.61696" lon="-0.26564">
        <ele>104.92</ele>
        <time>2015-01-20T11:00:40Z</time>
      </trkpt>
      <trkpt lat="44.61701" lon="-0.26564">
        <ele>105.4</ele>
        <time>2015-01-20T11:00:54Z</time>
      </trkpt>
      <trkpt lat="44.61706" lon="-0.26571">
        <ele>105.4</ele>
        <time>2015-01-20T11:01:04Z</time>
      </trkpt>
      <trkpt lat="44.6171" lon="-0.26589">
        <ele>103.96</ele>
        <time>2015-01-20T11:01:17Z</time>
      </trkpt>
      <trkpt lat="44.61712" lon="-0.26611">
        <ele>103.48</ele>
        <time>2015-01-20T11:01:32Z</time>
      </trkpt>
      <trkpt lat="44.61715" lon="-0.26636">
        <ele>102.04</ele>
        <time>2015-01-20T11:01:47Z</time>
      </trkpt>
      <trkpt lat="44.61718" lon="-0.26664">
        <ele>101.08</ele>
        <time>2015-01-20T11:02:02Z</time>
      </trkpt>
      <trkpt lat="44.61722" lon="-0.2669">
        <ele>100.11</ele>
        <time>2015-01-20T11:02:18Z</time>
      </trkpt>
      <trkpt lat="44.61727" lon="-0.26715">
        <ele>99.63</ele>
        <time>2015-01-20T11:02:33Z</time>
      </trkpt>
      <trkpt lat="44.61733" lon="-0.26744">
        <ele>98.67</ele>
        <time>2015-01-20T11:02:50Z</time>
      </trkpt>
      <trkpt lat="44.61738" lon="-0.26768">
        <ele>97.23</ele>
        <time>2015-01-20T11:03:06Z</time>
      </trkpt>
      <trkpt lat="44.61746" lon="-0.26794">
        <ele>97.23</ele>
        <time>2015-01-20T11:03:22Z</time>
      </trkpt>
      <trkpt lat="44.61755" lon="-0.26814">
        <ele>96.75</ele>
        <time>2015-01-20T11:03:37Z</time>
      </trkpt>
      <trkpt lat="44.61767" lon="-0.26837">
        <ele>95.79</ele>
        <time>2015-01-20T11:03:52Z</time>
      </trkpt>
      <trkpt lat="44.61777" lon="-0.26857">
        <ele>95.31</ele>
        <time>2015-01-20T11:04:07Z</time>
      </trkpt>
      <trkpt lat="44.61788" lon="-0.2688">
        <ele>94.83</ele>
        <time>2015-01-20T11:04:23Z</time>
      </trkpt>
      <trkpt lat="44.61792" lon="-0.26888">
        <ele>94.35</ele>
        <time>2015-01-20T11:04:31Z</time>
      </trkpt>
      <trkpt lat="44.61802" lon="-0.26913">
        <ele>93.39</ele>
        <time>2015-01-20T11:04:46Z</time>
      </trkpt>
      <trkpt lat="44.61812" lon="-0.26935">
        <ele>92.42</ele>
        <time>2015-01-20T11:05:01Z</time>
      </trkpt>
      <trkpt lat="44.61819" lon="-0.26957">
        <ele>90.98</ele>
        <time>2015-01-20T11:05:15Z</time>
      </trkpt>
      <trkpt lat="44.61824" lon="-0.26981">
        <ele>90.02</ele>
        <time>2015-01-20T11:05:30Z</time>
      </trkpt>
      <trkpt lat="44.61829" lon="-0.27003">
        <ele>89.06</ele>
        <time>2015-01-20T11:05:44Z</time>
      </trkpt>
      <trkpt lat="44.61835" lon="-0.27026">
        <ele>87.62</ele>
        <time>2015-01-20T11:05:58Z</time>
      </trkpt>
      <trkpt lat="44.61847" lon="-0.27047">
        <ele>86.18</ele>
        <time>2015-01-20T11:06:13Z</time>
      </trkpt>
      <trkpt lat="44.61867" lon="-0.27067">
        <ele>84.73</ele>
        <time>2015-01-20T11:06:32Z</time>
      </trkpt>
      <trkpt lat="44.61881" lon="-0.2708">
        <ele>82.81</ele>
        <time>2015-01-20T11:06:47Z</time>
      </trkpt>
      <trkpt lat="44.61896" lon="-0.27099">
        <ele>81.37</ele>
        <time>2015-01-20T11:07:04Z</time>
      </trkpt>
      <trkpt lat="44.6191" lon="-0.27117">
        <ele>79.93</ele>
        <time>2015-01-20T11:07:19Z</time>
      </trkpt>
      <trkpt lat="44.61923" lon="-0.27136">
        <ele>78</ele>
        <time>2015-01-20T11:07:34Z</time>
      </trkpt>
      <trkpt lat="44.61933" lon="-0.27149">
        <ele>77.52</ele>
        <time>2015-01-20T11:07:50Z</time>
      </trkpt>
      <trkpt lat="44.61933" lon="-0.2715">
        <ele>77.04</ele>
        <time>2015-01-20T11:08:07Z</time>
      </trkpt>
      <trkpt lat="44.61934" lon="-0.27149">
        <ele>77.04</ele>
        <time>2015-01-20T11:08:29Z</time>
      </trkpt>
      <trkpt lat="44.61934" lon="-0.27151">
        <ele>77.04</ele>
        <time>2015-01-20T11:08:50Z</time>
      </trkpt>
      <trkpt lat="44.61941" lon="-0.27159">
        <ele>76.08</ele>
        <time>2015-01-20T11:09:00Z</time>
      </trkpt>
      <trkpt lat="44.61946" lon="-0.27164">
        <ele>75.6</ele>
        <time>2015-01-20T11:09:06Z</time>
      </trkpt>
      <trkpt lat="44.61957" lon="-0.27177">
        <ele>74.16</ele>
        <time>2015-01-20T11:09:22Z</time>
      </trkpt>
      <trkpt lat="44.61968" lon="-0.27181">
        <ele>73.2</ele>
        <time>2015-01-20T11:09:35Z</time>
      </trkpt>
      <trkpt lat="44.61977" lon="-0.27188">
        <ele>72.24</ele>
        <time>2015-01-20T11:09:49Z</time>
      </trkpt>
      <trkpt lat="44.6198" lon="-0.2719">
        <ele>71.76</ele>
        <time>2015-01-20T11:10:04Z</time>
      </trkpt>
      <trkpt lat="44.61983" lon="-0.27189">
        <ele>71.27</ele>
        <time>2015-01-20T11:10:28Z</time>
      </trkpt>
      <trkpt lat="44.61984" lon="-0.27192">
        <ele>71.27</ele>
        <time>2015-01-20T11:10:53Z</time>
      </trkpt>
      <trkpt lat="44.61992" lon="-0.27199">
        <ele>70.31</ele>
        <time>2015-01-20T11:11:06Z</time>
      </trkpt>
      <trkpt lat="44.61998" lon="-0.27201">
        <ele>70.31</ele>
        <time>2015-01-20T11:11:18Z</time>
      </trkpt>
      <trkpt lat="44.62014" lon="-0.27218">
        <ele>67.91</ele>
        <time>2015-01-20T11:11:34Z</time>
      </trkpt>
      <trkpt lat="44.62022" lon="-0.27239">
        <ele>65.51</ele>
        <time>2015-01-20T11:11:49Z</time>
      </trkpt>
      <trkpt lat="44.62023" lon="-0.27246">
        <ele>65.51</ele>
        <time>2015-01-20T11:11:53Z</time>
      </trkpt>
      <trkpt lat="44.62023" lon="-0.2726">
        <ele>65.03</ele>
        <time>2015-01-20T11:12:01Z</time>
      </trkpt>
      <trkpt lat="44.62017" lon="-0.2729">
        <ele>62.62</ele>
        <time>2015-01-20T11:12:19Z</time>
      </trkpt>
      <trkpt lat="44.62011" lon="-0.27318">
        <ele>60.7</ele>
        <time>2015-01-20T11:12:35Z</time>
      </trkpt>
      <trkpt lat="44.62004" lon="-0.27346">
        <ele>58.78</ele>
        <time>2015-01-20T11:12:52Z</time>
      </trkpt>
      <trkpt lat="44.62002" lon="-0.27373">
        <ele>57.34</ele>
        <time>2015-01-20T11:13:08Z</time>
      </trkpt>
      <trkpt lat="44.62007" lon="-0.27393">
        <ele>55.89</ele>
        <time>2015-01-20T11:13:22Z</time>
      </trkpt>
      <trkpt lat="44.6201" lon="-0.274">
        <ele>55.41</ele>
        <time>2015-01-20T11:13:26Z</time>
      </trkpt>
      <trkpt lat="44.62023" lon="-0.27416">
        <ele>53.97</ele>
        <time>2015-01-20T11:13:42Z</time>
      </trkpt>
      <trkpt lat="44.6202" lon="-0.27423">
        <ele>53.49</ele>
        <time>2015-01-20T11:13:49Z</time>
      </trkpt>
      <trkpt lat="44.62012" lon="-0.27437">
        <ele>54.45</ele>
        <time>2015-01-20T11:14:02Z</time>
      </trkpt>
      <trkpt lat="44.61999" lon="-0.2745">
        <ele>55.89</ele>
        <time>2015-01-20T11:14:16Z</time>
      </trkpt>
      <trkpt lat="44.61989" lon="-0.27451">
        <ele>55.89</ele>
        <time>2015-01-20T11:14:26Z</time>
      </trkpt>
      <trkpt lat="44.61987" lon="-0.27451">
        <ele>55.89</ele>
        <time>2015-01-20T11:14:28Z</time>
      </trkpt>
      <trkpt lat="44.61979" lon="-0.2746">
        <ele>54.45</ele>
        <time>2015-01-20T11:14:37Z</time>
      </trkpt>
      <trkpt lat="44.61971" lon="-0.27463">
        <ele>53.49</ele>
        <time>2015-01-20T11:14:49Z</time>
      </trkpt>
      <trkpt lat="44.61966" lon="-0.27459">
        <ele>53.49</ele>
        <time>2015-01-20T11:14:55Z</time>
      </trkpt>
      <trkpt lat="44.61957" lon="-0.27442">
        <ele>53.01</ele>
        <time>2015-01-20T11:15:10Z</time>
      </trkpt>
      <trkpt lat="44.61954" lon="-0.27438">
        <ele>53.01</ele>
        <time>2015-01-20T11:15:15Z</time>
      </trkpt>
      <trkpt lat="44.61952" lon="-0.27438">
        <ele>53.01</ele>
        <time>2015-01-20T11:15:17Z</time>
      </trkpt>
      <trkpt lat="44.61938" lon="-0.27452">
        <ele>50.13</ele>
        <time>2015-01-20T11:15:33Z</time>
      </trkpt>
      <trkpt lat="44.61926" lon="-0.27469">
        <ele>48.68</ele>
        <time>2015-01-20T11:15:49Z</time>
      </trkpt>
      <trkpt lat="44.61914" lon="-0.27485">
        <ele>45.8</ele>
        <time>2015-01-20T11:16:04Z</time>
      </trkpt>
      <trkpt lat="44.61903" lon="-0.275">
        <ele>44.36</ele>
        <time>2015-01-20T11:16:19Z</time>
      </trkpt>
      <trkpt lat="44.61892" lon="-0.27518">
        <ele>41.47</ele>
        <time>2015-01-20T11:16:35Z</time>
      </trkpt>
      <trkpt lat="44.61879" lon="-0.27535">
        <ele>40.03</ele>
        <time>2015-01-20T11:16:50Z</time>
      </trkpt>
      <trkpt lat="44.61865" lon="-0.27549">
        <ele>36.67</ele>
        <time>2015-01-20T11:17:08Z</time>
      </trkpt>
      <trkpt lat="44.61852" lon="-0.27555">
        <ele>35.71</ele>
        <time>2015-01-20T11:17:22Z</time>
      </trkpt>
      <trkpt lat="44.6185" lon="-0.27558">
        <ele>35.71</ele>
        <time>2015-01-20T11:17:25Z</time>
      </trkpt>
      <trkpt lat="44.61841" lon="-0.27562">
        <ele>35.71</ele>
        <time>2015-01-20T11:17:33Z</time>
      </trkpt>
      <trkpt lat="44.61837" lon="-0.27565">
        <ele>37.15</ele>
        <time>2015-01-20T11:17:37Z</time>
      </trkpt>
      <trkpt lat="44.61836" lon="-0.27567">
        <ele>37.63</ele>
        <time>2015-01-20T11:17:39Z</time>
      </trkpt>
      <trkpt lat="44.61831" lon="-0.27573">
        <ele>38.11</ele>
        <time>2015-01-20T11:17:46Z</time>
      </trkpt>
      <trkpt lat="44.61823" lon="-0.27585">
        <ele>39.07</ele>
        <time>2015-01-20T11:17:59Z</time>
      </trkpt>
      <trkpt lat="44.61817" lon="-0.27594">
        <ele>40.99</ele>
        <time>2015-01-20T11:18:10Z</time>
      </trkpt>
      <trkpt lat="44.61814" lon="-0.276">
        <ele>42.44</ele>
        <time>2015-01-20T11:18:17Z</time>
      </trkpt>
      <trkpt lat="44.61809" lon="-0.27609">
        <ele>43.88</ele>
        <time>2015-01-20T11:18:30Z</time>
      </trkpt>
      <trkpt lat="44.61801" lon="-0.27618">
        <ele>46.76</ele>
        <time>2015-01-20T11:18:43Z</time>
      </trkpt>
      <trkpt lat="44.61794" lon="-0.2763">
        <ele>48.68</ele>
        <time>2015-01-20T11:18:57Z</time>
      </trkpt>
      <trkpt lat="44.61787" lon="-0.27641">
        <ele>50.13</ele>
        <time>2015-01-20T11:19:10Z</time>
      </trkpt>
      <trkpt lat="44.61781" lon="-0.2765">
        <ele>52.53</ele>
        <time>2015-01-20T11:19:23Z</time>
      </trkpt>
      <trkpt lat="44.61778" lon="-0.27655">
        <ele>53.49</ele>
        <time>2015-01-20T11:19:32Z</time>
      </trkpt>
      <trkpt lat="44.61774" lon="-0.27658">
        <ele>53.97</ele>
        <time>2015-01-20T11:19:43Z</time>
      </trkpt>
      <trkpt lat="44.61778" lon="-0.27657">
        <ele>53.97</ele>
        <time>2015-01-20T11:20:04Z</time>
      </trkpt>
      <trkpt lat="44.61778" lon="-0.27655">
        <ele>53.97</ele>
        <time>2015-01-20T11:20:30Z</time>
      </trkpt>
      <trkpt lat="44.61778" lon="-0.27655">
        <ele>53.97</ele>
        <time>2015-01-20T11:20:47Z</time>
      </trkpt>
      <trkpt lat="44.61771" lon="-0.27664">
        <ele>54.93</ele>
        <time>2015-01-20T11:21:01Z</time>
      </trkpt>
      <trkpt lat="44.61766" lon="-0.27669">
        <ele>55.89</ele>
        <time>2015-01-20T11:21:12Z</time>
      </trkpt>
      <trkpt lat="44.61759" lon="-0.27678">
        <ele>58.3</ele>
        <time>2015-01-20T11:21:27Z</time>
      </trkpt>
      <trkpt lat="44.61754" lon="-0.27684">
        <ele>59.74</ele>
        <time>2015-01-20T11:21:41Z</time>
      </trkpt>
      <trkpt lat="44.61749" lon="-0.2769">
        <ele>60.7</ele>
        <time>2015-01-20T11:21:51Z</time>
      </trkpt>
      <trkpt lat="44.61745" lon="-0.27696">
        <ele>60.7</ele>
        <time>2015-01-20T11:22:04Z</time>
      </trkpt>
      <trkpt lat="44.61743" lon="-0.27698">
        <ele>62.14</ele>
        <time>2015-01-20T11:22:16Z</time>
      </trkpt>
      <trkpt lat="44.61737" lon="-0.27707">
        <ele>63.1</ele>
        <time>2015-01-20T11:22:30Z</time>
      </trkpt>
      <trkpt lat="44.61728" lon="-0.2772">
        <ele>65.51</ele>
        <time>2015-01-20T11:22:43Z</time>
      </trkpt>
      <trkpt lat="44.6172" lon="-0.27735">
        <ele>67.91</ele>
        <time>2015-01-20T11:22:57Z</time>
      </trkpt>
      <trkpt lat="44.61719" lon="-0.27741">
        <ele>69.35</ele>
        <time>2015-01-20T11:23:12Z</time>
      </trkpt>
      <trkpt lat="44.61714" lon="-0.27746">
        <ele>70.31</ele>
        <time>2015-01-20T11:23:25Z</time>
      </trkpt>
      <trkpt lat="44.61711" lon="-0.27751">
        <ele>71.27</ele>
        <time>2015-01-20T11:23:36Z</time>
      </trkpt>
      <trkpt lat="44.61703" lon="-0.27757">
        <ele>73.2</ele>
        <time>2015-01-20T11:23:48Z</time>
      </trkpt>
      <trkpt lat="44.61694" lon="-0.27752">
        <ele>74.64</ele>
        <time>2015-01-20T11:24:02Z</time>
      </trkpt>
      <trkpt lat="44.61691" lon="-0.27752">
        <ele>75.12</ele>
        <time>2015-01-20T11:24:16Z</time>
      </trkpt>
      <trkpt lat="44.61689" lon="-0.27753">
        <ele>75.6</ele>
        <time>2015-01-20T11:24:32Z</time>
      </trkpt>
      <trkpt lat="44.61687" lon="-0.27749">
        <ele>75.6</ele>
        <time>2015-01-20T11:24:47Z</time>
      </trkpt>
      <trkpt lat="44.61686" lon="-0.27756">
        <ele>75.6</ele>
        <time>2015-01-20T11:25:00Z</time>
      </trkpt>
      <trkpt lat="44.61684" lon="-0.27759">
        <ele>76.08</ele>
        <time>2015-01-20T11:25:17Z</time>
      </trkpt>
      <trkpt lat="44.61678" lon="-0.27766">
        <ele>76.56</ele>
        <time>2015-01-20T11:25:25Z</time>
      </trkpt>
      <trkpt lat="44.61668" lon="-0.27779">
        <ele>78</ele>
        <time>2015-01-20T11:25:41Z</time>
      </trkpt>
      <trkpt lat="44.61665" lon="-0.27785">
        <ele>78</ele>
        <time>2015-01-20T11:25:53Z</time>
      </trkpt>
      <trkpt lat="44.61658" lon="-0.27793">
        <ele>78</ele>
        <time>2015-01-20T11:26:08Z</time>
      </trkpt>
      <trkpt lat="44.61645" lon="-0.27809">
        <ele>78.48</ele>
        <time>2015-01-20T11:26:20Z</time>
      </trkpt>
      <trkpt lat="44.61643" lon="-0.27811">
        <ele>78.48</ele>
        <time>2015-01-20T11:26:22Z</time>
      </trkpt>
      <trkpt lat="44.61641" lon="-0.27815">
        <ele>78.48</ele>
        <time>2015-01-20T11:26:25Z</time>
      </trkpt>
      <trkpt lat="44.61627" lon="-0.27831">
        <ele>78.48</ele>
        <time>2015-01-20T11:26:41Z</time>
      </trkpt>
      <trkpt lat="44.61614" lon="-0.27846">
        <ele>77.04</ele>
        <time>2015-01-20T11:26:55Z</time>
      </trkpt>
      <trkpt lat="44.61603" lon="-0.27858">
        <ele>76.56</ele>
        <time>2015-01-20T11:27:08Z</time>
      </trkpt>
      <trkpt lat="44.61592" lon="-0.27867">
        <ele>76.56</ele>
        <time>2015-01-20T11:27:19Z</time>
      </trkpt>
      <trkpt lat="44.61583" lon="-0.27872">
        <ele>76.08</ele>
        <time>2015-01-20T11:27:29Z</time>
      </trkpt>
      <trkpt lat="44.61569" lon="-0.27884">
        <ele>76.08</ele>
        <time>2015-01-20T11:27:43Z</time>
      </trkpt>
      <trkpt lat="44.61563" lon="-0.27891">
        <ele>75.6</ele>
        <time>2015-01-20T11:27:57Z</time>
      </trkpt>
      <trkpt lat="44.61556" lon="-0.27896">
        <ele>75.6</ele>
        <time>2015-01-20T11:28:14Z</time>
      </trkpt>
      <trkpt lat="44.6155" lon="-0.27902">
        <ele>75.6</ele>
        <time>2015-01-20T11:28:20Z</time>
      </trkpt>
      <trkpt lat="44.61539" lon="-0.27917">
        <ele>75.6</ele>
        <time>2015-01-20T11:28:35Z</time>
      </trkpt>
      <trkpt lat="44.61533" lon="-0.2793">
        <ele>76.08</ele>
        <time>2015-01-20T11:28:45Z</time>
      </trkpt>
      <trkpt lat="44.61533" lon="-0.2794">
        <ele>77.04</ele>
        <time>2015-01-20T11:28:51Z</time>
      </trkpt>
      <trkpt lat="44.61533" lon="-0.27946">
        <ele>77.04</ele>
        <time>2015-01-20T11:28:55Z</time>
      </trkpt>
      <trkpt lat="44.61534" lon="-0.27954">
        <ele>77.04</ele>
        <time>2015-01-20T11:29:00Z</time>
      </trkpt>
      <trkpt lat="44.61535" lon="-0.2797">
        <ele>77.04</ele>
        <time>2015-01-20T11:29:12Z</time>
      </trkpt>
      <trkpt lat="44.6153" lon="-0.27988">
        <ele>77.52</ele>
        <time>2015-01-20T11:29:23Z</time>
      </trkpt>
      <trkpt lat="44.61519" lon="-0.28003">
        <ele>78</ele>
        <time>2015-01-20T11:29:35Z</time>
      </trkpt>
      <trkpt lat="44.61507" lon="-0.28017">
        <ele>78</ele>
        <time>2015-01-20T11:29:47Z</time>
      </trkpt>
      <trkpt lat="44.615" lon="-0.28025">
        <ele>78.48</ele>
        <time>2015-01-20T11:29:55Z</time>
      </trkpt>
      <trkpt lat="44.61482" lon="-0.28044">
        <ele>79.93</ele>
        <time>2015-01-20T11:30:15Z</time>
      </trkpt>
      <trkpt lat="44.61475" lon="-0.28052">
        <ele>80.89</ele>
        <time>2015-01-20T11:30:24Z</time>
      </trkpt>
      <trkpt lat="44.61474" lon="-0.28059">
        <ele>81.37</ele>
        <time>2015-01-20T11:30:28Z</time>
      </trkpt>
      <trkpt lat="44.61482" lon="-0.28075">
        <ele>81.37</ele>
        <time>2015-01-20T11:30:42Z</time>
      </trkpt>
      <trkpt lat="44.61486" lon="-0.28084">
        <ele>81.37</ele>
        <time>2015-01-20T11:30:54Z</time>
      </trkpt>
      <trkpt lat="44.61487" lon="-0.28087">
        <ele>80.41</ele>
        <time>2015-01-20T11:31:17Z</time>
      </trkpt>
      <trkpt lat="44.6149" lon="-0.28085">
        <ele>80.41</ele>
        <time>2015-01-20T11:31:30Z</time>
      </trkpt>
      <trkpt lat="44.61486" lon="-0.28084">
        <ele>80.41</ele>
        <time>2015-01-20T11:31:56Z</time>
      </trkpt>
      <trkpt lat="44.61489" lon="-0.28084">
        <ele>80.41</ele>
        <time>2015-01-20T11:32:13Z</time>
      </trkpt>
      <trkpt lat="44.61483" lon="-0.28077">
        <ele>80.41</ele>
        <time>2015-01-20T11:32:26Z</time>
      </trkpt>
      <trkpt lat="44.61479" lon="-0.28075">
        <ele>79.93</ele>
        <time>2015-01-20T11:32:39Z</time>
      </trkpt>
      <trkpt lat="44.61474" lon="-0.28073">
        <ele>81.37</ele>
        <time>2015-01-20T11:32:53Z</time>
      </trkpt>
      <trkpt lat="44.61478" lon="-0.28071">
        <ele>81.37</ele>
        <time>2015-01-20T11:33:09Z</time>
      </trkpt>
      <trkpt lat="44.61477" lon="-0.28068">
        <ele>81.37</ele>
        <time>2015-01-20T11:33:25Z</time>
      </trkpt>
      <trkpt lat="44.61477" lon="-0.28068">
        <ele>81.37</ele>
        <time>2015-01-20T11:33:26Z</time>
      </trkpt>
      <trkpt lat="44.61471" lon="-0.28062">
        <ele>81.37</ele>
        <time>2015-01-20T11:33:34Z</time>
      </trkpt>
      <trkpt lat="44.61465" lon="-0.28051">
        <ele>81.37</ele>
        <time>2015-01-20T11:33:46Z</time>
      </trkpt>
      <trkpt lat="44.61458" lon="-0.28046">
        <ele>81.37</ele>
        <time>2015-01-20T11:33:56Z</time>
      </trkpt>
      <trkpt lat="44.61457" lon="-0.28044">
        <ele>81.37</ele>
        <time>2015-01-20T11:33:58Z</time>
      </trkpt>
      <trkpt lat="44.61443" lon="-0.28033">
        <ele>81.85</ele>
        <time>2015-01-20T11:34:12Z</time>
      </trkpt>
      <trkpt lat="44.61427" lon="-0.28018">
        <ele>81.85</ele>
        <time>2015-01-20T11:34:28Z</time>
      </trkpt>
      <trkpt lat="44.61417" lon="-0.28009">
        <ele>82.33</ele>
        <time>2015-01-20T11:34:41Z</time>
      </trkpt>
      <trkpt lat="44.61414" lon="-0.28006">
        <ele>82.33</ele>
        <time>2015-01-20T11:34:45Z</time>
      </trkpt>
      <trkpt lat="44.614" lon="-0.27992">
        <ele>83.29</ele>
        <time>2015-01-20T11:35:00Z</time>
      </trkpt>
      <trkpt lat="44.61388" lon="-0.27978">
        <ele>83.77</ele>
        <time>2015-01-20T11:35:13Z</time>
      </trkpt>
      <trkpt lat="44.61377" lon="-0.27963">
        <ele>84.73</ele>
        <time>2015-01-20T11:35:28Z</time>
      </trkpt>
      <trkpt lat="44.61364" lon="-0.2795">
        <ele>85.21</ele>
        <time>2015-01-20T11:35:41Z</time>
      </trkpt>
      <trkpt lat="44.61352" lon="-0.27934">
        <ele>85.69</ele>
        <time>2015-01-20T11:35:55Z</time>
      </trkpt>
      <trkpt lat="44.61339" lon="-0.27915">
        <ele>85.69</ele>
        <time>2015-01-20T11:36:11Z</time>
      </trkpt>
      <trkpt lat="44.61327" lon="-0.27899">
        <ele>85.69</ele>
        <time>2015-01-20T11:36:25Z</time>
      </trkpt>
      <trkpt lat="44.61311" lon="-0.27888">
        <ele>85.69</ele>
        <time>2015-01-20T11:36:39Z</time>
      </trkpt>
      <trkpt lat="44.61294" lon="-0.27882">
        <ele>86.18</ele>
        <time>2015-01-20T11:36:54Z</time>
      </trkpt>
      <trkpt lat="44.61287" lon="-0.2788">
        <ele>86.18</ele>
        <time>2015-01-20T11:37:01Z</time>
      </trkpt>
      <trkpt lat="44.61286" lon="-0.2788">
        <ele>86.18</ele>
        <time>2015-01-20T11:37:13Z</time>
      </trkpt>
      <trkpt lat="44.61284" lon="-0.27879">
        <ele>86.18</ele>
        <time>2015-01-20T11:37:15Z</time>
      </trkpt>
      <trkpt lat="44.61274" lon="-0.27875">
        <ele>86.66</ele>
        <time>2015-01-20T11:37:29Z</time>
      </trkpt>
      <trkpt lat="44.61274" lon="-0.27874">
        <ele>86.66</ele>
        <time>2015-01-20T11:37:47Z</time>
      </trkpt>
      <trkpt lat="44.61275" lon="-0.27876">
        <ele>86.66</ele>
        <time>2015-01-20T11:38:11Z</time>
      </trkpt>
      <trkpt lat="44.61274" lon="-0.27878">
        <ele>87.14</ele>
        <time>2015-01-20T11:38:37Z</time>
      </trkpt>
    </trkseg>
  </trk>
</gpx>